<?xml version="1.0" encoding="UTF-8" standalone="no" ?><gpx xmlns="http://www.topografix.com/GPX/1/1" xmlns:gpxx="http://www.garmin.com/xmlschemas/GpxExtensions/v3" xmlns:gpxtpx="http://www.garmin.com/xmlschemas/TrackPointExtension/v1" creator="Oregon 300" version="1.1" xmlns:xsi="http://www.w3.org/2001/XMLSchema-instance" xsi:schemaLocation="http://www.topografix.com/GPX/1/1 http://www.topografix.com/GPX/1/1/gpx.xsd http://www.garmin.com/xmlschemas/GpxExtensions/v3 http://www.garmin.com/xmlschemas/GpxExtensionsv3.xsd http://www.garmin.com/xmlschemas/TrackPointExtension/v1 http://www.garmin.com/xmlschemas/TrackPointExtensionv1.xsd"><metadata><link href="http://www.garmin.com"><text>Garmin International</text></link><time>2009-10-10T17:25:11Z</time></metadata><trk><name>OKT-10-09 19:25:08</name><trkseg><trkpt lat="57.774100" lon="11.835351"><ele>17.44</ele><time>2009-09-26T16:46:56Z</time></trkpt><trkpt lat="57.774084" lon="11.835346"><ele>17.92</ele><time>2009-09-26T16:47:12Z</time></trkpt><trkpt lat="57.774084" lon="11.835346"><ele>15.52</ele><time>2009-10-10T11:26:13Z</time></trkpt><trkpt lat="57.774084" lon="11.835346"><ele>-65.23</ele><time>2009-10-10T11:26:15Z</time></trkpt><trkpt lat="57.774084" lon="11.835346"><ele>-66.19</ele><time>2009-10-10T11:26:16Z</time></trkpt><trkpt lat="57.774084" lon="11.835346"><ele>-69.56</ele><time>2009-10-10T11:26:40Z</time></trkpt><trkpt lat="57.774084" lon="11.835346"><ele>-69.56</ele><time>2009-10-10T11:26:41Z</time></trkpt><trkpt lat="57.774084" lon="11.835346"><ele>-65.71</ele><time>2009-10-10T11:26:42Z</time></trkpt><trkpt lat="57.774084" lon="11.835346"><ele>-66.19</ele><time>2009-10-10T11:26:55Z</time></trkpt><trkpt lat="57.774084" lon="11.835346"><ele>-63.79</ele><time>2009-10-10T11:26:58Z</time></trkpt><trkpt lat="57.774084" lon="11.835346"><ele>-68.12</ele><time>2009-10-10T11:27:05Z</time></trkpt><trkpt lat="57.774084" lon="11.835346"><ele>-64.75</ele><time>2009-10-10T11:27:06Z</time></trkpt><trkpt lat="57.774084" lon="11.835346"><ele>-66.19</ele><time>2009-10-10T11:27:08Z</time></trkpt><trkpt lat="57.774084" lon="11.835346"><ele>-70.52</ele><time>2009-10-10T11:27:09Z</time></trkpt><trkpt lat="57.774084" lon="11.835346"><ele>-70.52</ele><time>2009-10-10T11:27:10Z</time></trkpt><trkpt lat="57.763465" lon="11.804697"><ele>-65.23</ele><time>2009-10-10T11:27:23Z</time></trkpt><trkpt lat="57.763471" lon="11.804738"><ele>-66.67</ele><time>2009-10-10T11:27:26Z</time></trkpt><trkpt lat="57.763473" lon="11.804745"><ele>-66.67</ele><time>2009-10-10T11:27:27Z</time></trkpt><trkpt lat="57.763474" lon="11.804756"><ele>-62.83</ele><time>2009-10-10T11:27:32Z</time></trkpt><trkpt lat="57.763473" lon="11.804751"><ele>-60.91</ele><time>2009-10-10T11:27:34Z</time></trkpt><trkpt lat="57.763471" lon="11.804753"><ele>-56.58</ele><time>2009-10-10T11:27:35Z</time></trkpt><trkpt lat="57.763468" lon="11.804752"><ele>-53.22</ele><time>2009-10-10T11:27:37Z</time></trkpt><trkpt lat="57.763467" lon="11.804741"><ele>-49.85</ele><time>2009-10-10T11:27:39Z</time></trkpt><trkpt lat="57.763467" lon="11.804731"><ele>-46.01</ele><time>2009-10-10T11:27:41Z</time></trkpt><trkpt lat="57.763467" lon="11.804710"><ele>-42.16</ele><time>2009-10-10T11:27:44Z</time></trkpt><trkpt lat="57.763464" lon="11.804718"><ele>-37.35</ele><time>2009-10-10T11:27:47Z</time></trkpt><trkpt lat="57.763466" lon="11.804714"><ele>-33.99</ele><time>2009-10-10T11:27:50Z</time></trkpt><trkpt lat="57.763462" lon="11.804705"><ele>-31.11</ele><time>2009-10-10T11:27:53Z</time></trkpt><trkpt lat="57.763457" lon="11.804699"><ele>-26.30</ele><time>2009-10-10T11:27:56Z</time></trkpt><trkpt lat="57.763456" lon="11.804700"><ele>-26.30</ele><time>2009-10-10T11:27:57Z</time></trkpt><trkpt lat="57.763459" lon="11.804711"><ele>-22.93</ele><time>2009-10-10T11:28:00Z</time></trkpt><trkpt lat="57.763460" lon="11.804714"><ele>-22.93</ele><time>2009-10-10T11:28:01Z</time></trkpt><trkpt lat="57.763454" lon="11.804765"><ele>-19.09</ele><time>2009-10-10T11:28:04Z</time></trkpt><trkpt lat="57.763453" lon="11.804774"><ele>-19.09</ele><time>2009-10-10T11:28:05Z</time></trkpt><trkpt lat="57.763453" lon="11.804777"><ele>-17.65</ele><time>2009-10-10T11:28:07Z</time></trkpt><trkpt lat="57.763454" lon="11.804778"><ele>-16.21</ele><time>2009-10-10T11:28:10Z</time></trkpt><trkpt lat="57.763456" lon="11.804790"><ele>-12.84</ele><time>2009-10-10T11:28:16Z</time></trkpt><trkpt lat="57.763457" lon="11.804790"><ele>-12.84</ele><time>2009-10-10T11:28:17Z</time></trkpt><trkpt lat="57.763457" lon="11.804793"><ele>-9.96</ele><time>2009-10-10T11:28:26Z</time></trkpt><trkpt lat="57.763458" lon="11.804793"><ele>-9.00</ele><time>2009-10-10T11:28:28Z</time></trkpt><trkpt lat="57.763467" lon="11.804798"><ele>-5.63</ele><time>2009-10-10T11:28:39Z</time></trkpt><trkpt lat="57.763467" lon="11.804796"><ele>-5.15</ele><time>2009-10-10T11:28:43Z</time></trkpt><trkpt lat="57.763469" lon="11.804785"><ele>-4.19</ele><time>2009-10-10T11:29:05Z</time></trkpt><trkpt lat="57.763458" lon="11.804794"><ele>-3.71</ele><time>2009-10-10T11:33:29Z</time></trkpt><trkpt lat="57.763457" lon="11.804796"><ele>-2.27</ele><time>2009-10-10T11:33:49Z</time></trkpt><trkpt lat="57.763467" lon="11.804950"><ele>-3.23</ele><time>2009-10-10T11:34:49Z</time></trkpt><trkpt lat="57.763494" lon="11.804994"><ele>-3.23</ele><time>2009-10-10T11:35:18Z</time></trkpt><trkpt lat="57.763504" lon="11.805022"><ele>-3.71</ele><time>2009-10-10T11:36:01Z</time></trkpt><trkpt lat="57.763416" lon="11.804977"><ele>-2.75</ele><time>2009-10-10T11:36:35Z</time></trkpt><trkpt lat="57.763343" lon="11.804901"><ele>-3.71</ele><time>2009-10-10T11:36:48Z</time></trkpt><trkpt lat="57.762992" lon="11.804548"><ele>-2.75</ele><time>2009-10-10T11:37:22Z</time></trkpt><trkpt lat="57.762529" lon="11.804050"><ele>-2.75</ele><time>2009-10-10T11:37:57Z</time></trkpt><trkpt lat="57.762379" lon="11.803212"><ele>-2.75</ele><time>2009-10-10T11:38:27Z</time></trkpt><trkpt lat="57.762420" lon="11.802233"><ele>-2.27</ele><time>2009-10-10T11:39:04Z</time></trkpt><trkpt lat="57.762482" lon="11.801083"><ele>-2.27</ele><time>2009-10-10T11:39:47Z</time></trkpt><trkpt lat="57.762495" lon="11.799856"><ele>-2.75</ele><time>2009-10-10T11:40:26Z</time></trkpt><trkpt lat="57.762135" lon="11.798764"><ele>-1.79</ele><time>2009-10-10T11:41:02Z</time></trkpt><trkpt lat="57.761635" lon="11.797820"><ele>-1.30</ele><time>2009-10-10T11:41:35Z</time></trkpt><trkpt lat="57.761445" lon="11.796385"><ele>-1.30</ele><time>2009-10-10T11:42:15Z</time></trkpt><trkpt lat="57.761305" lon="11.794959"><ele>-0.82</ele><time>2009-10-10T11:42:57Z</time></trkpt><trkpt lat="57.760887" lon="11.794320"><ele>-0.82</ele><time>2009-10-10T11:43:31Z</time></trkpt><trkpt lat="57.760748" lon="11.794386"><ele>-0.34</ele><time>2009-10-10T11:43:44Z</time></trkpt><trkpt lat="57.760687" lon="11.794289"><ele>-0.34</ele><time>2009-10-10T11:43:50Z</time></trkpt><trkpt lat="57.760583" lon="11.792980"><ele>-1.30</ele><time>2009-10-10T11:44:32Z</time></trkpt><trkpt lat="57.760597" lon="11.791672"><ele>-0.82</ele><time>2009-10-10T11:45:15Z</time></trkpt><trkpt lat="57.760682" lon="11.790154"><ele>-1.30</ele><time>2009-10-10T11:46:07Z</time></trkpt><trkpt lat="57.760782" lon="11.788758"><ele>-0.82</ele><time>2009-10-10T11:46:54Z</time></trkpt><trkpt lat="57.760972" lon="11.787128"><ele>-0.82</ele><time>2009-10-10T11:47:39Z</time></trkpt><trkpt lat="57.761176" lon="11.785400"><ele>-0.82</ele><time>2009-10-10T11:48:23Z</time></trkpt><trkpt lat="57.761563" lon="11.783637"><ele>-1.30</ele><time>2009-10-10T11:49:05Z</time></trkpt><trkpt lat="57.762086" lon="11.781821"><ele>-0.34</ele><time>2009-10-10T11:49:53Z</time></trkpt><trkpt lat="57.762553" lon="11.780207"><ele>-0.82</ele><time>2009-10-10T11:50:37Z</time></trkpt><trkpt lat="57.762990" lon="11.778442"><ele>-0.82</ele><time>2009-10-10T11:51:21Z</time></trkpt><trkpt lat="57.763065" lon="11.778125"><ele>-1.79</ele><time>2009-10-10T11:51:29Z</time></trkpt><trkpt lat="57.763094" lon="11.778010"><ele>-0.34</ele><time>2009-10-10T11:51:32Z</time></trkpt><trkpt lat="57.763360" lon="11.777060"><ele>-0.82</ele><time>2009-10-10T11:52:01Z</time></trkpt><trkpt lat="57.763693" lon="11.775815"><ele>0.14</ele><time>2009-10-10T11:52:43Z</time></trkpt><trkpt lat="57.763995" lon="11.774567"><ele>-0.34</ele><time>2009-10-10T11:53:24Z</time></trkpt><trkpt lat="57.764261" lon="11.773199"><ele>-0.82</ele><time>2009-10-10T11:54:05Z</time></trkpt><trkpt lat="57.764423" lon="11.772222"><ele>-0.34</ele><time>2009-10-10T11:54:35Z</time></trkpt><trkpt lat="57.764637" lon="11.771026"><ele>-0.82</ele><time>2009-10-10T11:55:11Z</time></trkpt><trkpt lat="57.764774" lon="11.770253"><ele>-0.82</ele><time>2009-10-10T11:55:35Z</time></trkpt><trkpt lat="57.764928" lon="11.769537"><ele>-0.82</ele><time>2009-10-10T11:55:57Z</time></trkpt><trkpt lat="57.765114" lon="11.768763"><ele>-0.34</ele><time>2009-10-10T11:56:20Z</time></trkpt><trkpt lat="57.765301" lon="11.767973"><ele>-0.34</ele><time>2009-10-10T11:56:43Z</time></trkpt><trkpt lat="57.765601" lon="11.766705"><ele>-0.34</ele><time>2009-10-10T11:57:20Z</time></trkpt><trkpt lat="57.765953" lon="11.765374"><ele>-0.82</ele><time>2009-10-10T11:57:56Z</time></trkpt><trkpt lat="57.766287" lon="11.763909"><ele>-0.82</ele><time>2009-10-10T11:58:34Z</time></trkpt><trkpt lat="57.766651" lon="11.762455"><ele>-0.82</ele><time>2009-10-10T11:59:14Z</time></trkpt><trkpt lat="57.766902" lon="11.761279"><ele>-0.34</ele><time>2009-10-10T11:59:46Z</time></trkpt><trkpt lat="57.767201" lon="11.759708"><ele>-0.82</ele><time>2009-10-10T12:00:25Z</time></trkpt><trkpt lat="57.767542" lon="11.758208"><ele>-0.34</ele><time>2009-10-10T12:01:03Z</time></trkpt><trkpt lat="57.767861" lon="11.756921"><ele>-0.34</ele><time>2009-10-10T12:01:35Z</time></trkpt><trkpt lat="57.768210" lon="11.755640"><ele>-0.82</ele><time>2009-10-10T12:02:07Z</time></trkpt><trkpt lat="57.768595" lon="11.754133"><ele>0.14</ele><time>2009-10-10T12:02:44Z</time></trkpt><trkpt lat="57.768923" lon="11.752630"><ele>0.14</ele><time>2009-10-10T12:03:24Z</time></trkpt><trkpt lat="57.769149" lon="11.751628"><ele>0.14</ele><time>2009-10-10T12:03:51Z</time></trkpt><trkpt lat="57.769398" lon="11.750508"><ele>0.14</ele><time>2009-10-10T12:04:22Z</time></trkpt><trkpt lat="57.769723" lon="11.749445"><ele>0.14</ele><time>2009-10-10T12:04:53Z</time></trkpt><trkpt lat="57.770098" lon="11.748111"><ele>0.14</ele><time>2009-10-10T12:05:27Z</time></trkpt><trkpt lat="57.770475" lon="11.746594"><ele>-0.34</ele><time>2009-10-10T12:06:08Z</time></trkpt><trkpt lat="57.770794" lon="11.745376"><ele>0.62</ele><time>2009-10-10T12:06:41Z</time></trkpt><trkpt lat="57.771165" lon="11.743796"><ele>0.14</ele><time>2009-10-10T12:07:21Z</time></trkpt><trkpt lat="57.771185" lon="11.743720"><ele>0.62</ele><time>2009-10-10T12:07:23Z</time></trkpt><trkpt lat="57.771382" lon="11.742860"><ele>0.14</ele><time>2009-10-10T12:07:47Z</time></trkpt><trkpt lat="57.771637" lon="11.741673"><ele>0.14</ele><time>2009-10-10T12:08:21Z</time></trkpt><trkpt lat="57.771962" lon="11.740360"><ele>0.62</ele><time>2009-10-10T12:09:00Z</time></trkpt><trkpt lat="57.772271" lon="11.739316"><ele>0.62</ele><time>2009-10-10T12:09:31Z</time></trkpt><trkpt lat="57.772617" lon="11.738262"><ele>0.14</ele><time>2009-10-10T12:10:01Z</time></trkpt><trkpt lat="57.772969" lon="11.737215"><ele>0.62</ele><time>2009-10-10T12:10:31Z</time></trkpt><trkpt lat="57.773252" lon="11.736371"><ele>-0.34</ele><time>2009-10-10T12:10:57Z</time></trkpt><trkpt lat="57.773594" lon="11.735427"><ele>0.14</ele><time>2009-10-10T12:11:27Z</time></trkpt><trkpt lat="57.773930" lon="11.734485"><ele>0.62</ele><time>2009-10-10T12:11:59Z</time></trkpt><trkpt lat="57.774224" lon="11.733671"><ele>0.14</ele><time>2009-10-10T12:12:24Z</time></trkpt><trkpt lat="57.774497" lon="11.732975"><ele>0.62</ele><time>2009-10-10T12:12:44Z</time></trkpt><trkpt lat="57.774854" lon="11.731858"><ele>0.62</ele><time>2009-10-10T12:13:15Z</time></trkpt><trkpt lat="57.775129" lon="11.730861"><ele>0.62</ele><time>2009-10-10T12:13:44Z</time></trkpt><trkpt lat="57.775446" lon="11.729773"><ele>0.62</ele><time>2009-10-10T12:14:17Z</time></trkpt><trkpt lat="57.775791" lon="11.728731"><ele>0.62</ele><time>2009-10-10T12:14:47Z</time></trkpt><trkpt lat="57.776222" lon="11.727561"><ele>0.62</ele><time>2009-10-10T12:15:20Z</time></trkpt><trkpt lat="57.776563" lon="11.726452"><ele>0.62</ele><time>2009-10-10T12:15:50Z</time></trkpt><trkpt lat="57.776817" lon="11.725431"><ele>1.10</ele><time>2009-10-10T12:16:17Z</time></trkpt><trkpt lat="57.777187" lon="11.724343"><ele>1.10</ele><time>2009-10-10T12:16:49Z</time></trkpt><trkpt lat="57.777531" lon="11.723278"><ele>1.58</ele><time>2009-10-10T12:17:19Z</time></trkpt><trkpt lat="57.777884" lon="11.722147"><ele>2.06</ele><time>2009-10-10T12:17:50Z</time></trkpt><trkpt lat="57.778192" lon="11.720775"><ele>1.58</ele><time>2009-10-10T12:18:25Z</time></trkpt><trkpt lat="57.778685" lon="11.719348"><ele>2.06</ele><time>2009-10-10T12:19:02Z</time></trkpt><trkpt lat="57.779077" lon="11.717956"><ele>2.06</ele><time>2009-10-10T12:19:40Z</time></trkpt><trkpt lat="57.779537" lon="11.716766"><ele>2.06</ele><time>2009-10-10T12:20:12Z</time></trkpt><trkpt lat="57.780037" lon="11.715193"><ele>2.06</ele><time>2009-10-10T12:20:48Z</time></trkpt><trkpt lat="57.780469" lon="11.713906"><ele>2.54</ele><time>2009-10-10T12:21:18Z</time></trkpt><trkpt lat="57.780880" lon="11.712543"><ele>2.54</ele><time>2009-10-10T12:21:51Z</time></trkpt><trkpt lat="57.781394" lon="11.710991"><ele>3.02</ele><time>2009-10-10T12:22:32Z</time></trkpt><trkpt lat="57.781944" lon="11.709412"><ele>3.02</ele><time>2009-10-10T12:23:14Z</time></trkpt><trkpt lat="57.782545" lon="11.707742"><ele>3.02</ele><time>2009-10-10T12:23:58Z</time></trkpt><trkpt lat="57.783184" lon="11.706200"><ele>3.02</ele><time>2009-10-10T12:24:36Z</time></trkpt><trkpt lat="57.783566" lon="11.704657"><ele>2.54</ele><time>2009-10-10T12:25:14Z</time></trkpt><trkpt lat="57.784089" lon="11.702912"><ele>2.54</ele><time>2009-10-10T12:25:57Z</time></trkpt><trkpt lat="57.784564" lon="11.701183"><ele>2.54</ele><time>2009-10-10T12:26:41Z</time></trkpt><trkpt lat="57.785066" lon="11.699653"><ele>3.02</ele><time>2009-10-10T12:27:23Z</time></trkpt><trkpt lat="57.785644" lon="11.697973"><ele>3.02</ele><time>2009-10-10T12:28:06Z</time></trkpt><trkpt lat="57.786209" lon="11.696399"><ele>2.54</ele><time>2009-10-10T12:28:44Z</time></trkpt><trkpt lat="57.786648" lon="11.694930"><ele>2.54</ele><time>2009-10-10T12:29:21Z</time></trkpt><trkpt lat="57.787206" lon="11.693224"><ele>3.02</ele><time>2009-10-10T12:30:04Z</time></trkpt><trkpt lat="57.787834" lon="11.691527"><ele>3.02</ele><time>2009-10-10T12:30:45Z</time></trkpt><trkpt lat="57.788456" lon="11.689900"><ele>3.02</ele><time>2009-10-10T12:31:28Z</time></trkpt><trkpt lat="57.788917" lon="11.688465"><ele>3.50</ele><time>2009-10-10T12:32:04Z</time></trkpt><trkpt lat="57.789271" lon="11.686806"><ele>3.50</ele><time>2009-10-10T12:32:42Z</time></trkpt><trkpt lat="57.789663" lon="11.685049"><ele>3.02</ele><time>2009-10-10T12:33:23Z</time></trkpt><trkpt lat="57.789886" lon="11.683377"><ele>3.50</ele><time>2009-10-10T12:33:57Z</time></trkpt><trkpt lat="57.790075" lon="11.681652"><ele>3.98</ele><time>2009-10-10T12:34:32Z</time></trkpt><trkpt lat="57.790462" lon="11.680130"><ele>3.50</ele><time>2009-10-10T12:35:05Z</time></trkpt><trkpt lat="57.790770" lon="11.678681"><ele>3.98</ele><time>2009-10-10T12:35:37Z</time></trkpt><trkpt lat="57.791135" lon="11.677089"><ele>4.46</ele><time>2009-10-10T12:36:11Z</time></trkpt><trkpt lat="57.791329" lon="11.676299"><ele>3.98</ele><time>2009-10-10T12:36:29Z</time></trkpt><trkpt lat="57.791722" lon="11.674789"><ele>4.46</ele><time>2009-10-10T12:37:04Z</time></trkpt><trkpt lat="57.792056" lon="11.673094"><ele>4.46</ele><time>2009-10-10T12:37:43Z</time></trkpt><trkpt lat="57.792345" lon="11.671433"><ele>3.50</ele><time>2009-10-10T12:38:18Z</time></trkpt><trkpt lat="57.792584" lon="11.669874"><ele>3.98</ele><time>2009-10-10T12:38:49Z</time></trkpt><trkpt lat="57.792703" lon="11.668570"><ele>3.50</ele><time>2009-10-10T12:39:16Z</time></trkpt><trkpt lat="57.793007" lon="11.666921"><ele>3.50</ele><time>2009-10-10T12:39:52Z</time></trkpt><trkpt lat="57.793340" lon="11.665438"><ele>3.98</ele><time>2009-10-10T12:40:27Z</time></trkpt><trkpt lat="57.793759" lon="11.663895"><ele>3.50</ele><time>2009-10-10T12:41:04Z</time></trkpt><trkpt lat="57.794226" lon="11.662361"><ele>3.98</ele><time>2009-10-10T12:41:42Z</time></trkpt><trkpt lat="57.794651" lon="11.661007"><ele>3.98</ele><time>2009-10-10T12:42:18Z</time></trkpt><trkpt lat="57.795121" lon="11.659744"><ele>3.98</ele><time>2009-10-10T12:42:51Z</time></trkpt><trkpt lat="57.795658" lon="11.658308"><ele>3.98</ele><time>2009-10-10T12:43:23Z</time></trkpt><trkpt lat="57.796017" lon="11.656558"><ele>3.50</ele><time>2009-10-10T12:43:59Z</time></trkpt><trkpt lat="57.796022" lon="11.655021"><ele>3.50</ele><time>2009-10-10T12:44:32Z</time></trkpt><trkpt lat="57.795989" lon="11.653436"><ele>3.98</ele><time>2009-10-10T12:45:04Z</time></trkpt><trkpt lat="57.795941" lon="11.651986"><ele>3.98</ele><time>2009-10-10T12:45:34Z</time></trkpt><trkpt lat="57.795977" lon="11.650548"><ele>3.98</ele><time>2009-10-10T12:46:05Z</time></trkpt><trkpt lat="57.795942" lon="11.649221"><ele>3.98</ele><time>2009-10-10T12:46:34Z</time></trkpt><trkpt lat="57.795911" lon="11.647863"><ele>3.98</ele><time>2009-10-10T12:47:04Z</time></trkpt><trkpt lat="57.795875" lon="11.646443"><ele>4.94</ele><time>2009-10-10T12:47:35Z</time></trkpt><trkpt lat="57.795859" lon="11.645269"><ele>3.50</ele><time>2009-10-10T12:48:02Z</time></trkpt><trkpt lat="57.795805" lon="11.644256"><ele>3.98</ele><time>2009-10-10T12:48:24Z</time></trkpt><trkpt lat="57.795766" lon="11.643009"><ele>4.94</ele><time>2009-10-10T12:48:51Z</time></trkpt><trkpt lat="57.795703" lon="11.641759"><ele>4.46</ele><time>2009-10-10T12:49:20Z</time></trkpt><trkpt lat="57.795624" lon="11.640534"><ele>4.46</ele><time>2009-10-10T12:49:48Z</time></trkpt><trkpt lat="57.795621" lon="11.639058"><ele>4.46</ele><time>2009-10-10T12:50:19Z</time></trkpt><trkpt lat="57.795605" lon="11.637597"><ele>3.98</ele><time>2009-10-10T12:50:50Z</time></trkpt><trkpt lat="57.795559" lon="11.636296"><ele>3.50</ele><time>2009-10-10T12:51:19Z</time></trkpt><trkpt lat="57.795415" lon="11.635314"><ele>3.98</ele><time>2009-10-10T12:51:42Z</time></trkpt><trkpt lat="57.795327" lon="11.634145"><ele>3.50</ele><time>2009-10-10T12:52:07Z</time></trkpt><trkpt lat="57.795262" lon="11.632817"><ele>3.50</ele><time>2009-10-10T12:52:34Z</time></trkpt><trkpt lat="57.795314" lon="11.631296"><ele>3.98</ele><time>2009-10-10T12:53:06Z</time></trkpt><trkpt lat="57.795393" lon="11.629490"><ele>4.46</ele><time>2009-10-10T12:53:45Z</time></trkpt><trkpt lat="57.795387" lon="11.628045"><ele>3.98</ele><time>2009-10-10T12:54:17Z</time></trkpt><trkpt lat="57.795292" lon="11.626514"><ele>3.50</ele><time>2009-10-10T12:54:51Z</time></trkpt><trkpt lat="57.795213" lon="11.625308"><ele>3.98</ele><time>2009-10-10T12:55:19Z</time></trkpt><trkpt lat="57.795205" lon="11.623790"><ele>3.50</ele><time>2009-10-10T12:55:53Z</time></trkpt><trkpt lat="57.795183" lon="11.622165"><ele>4.46</ele><time>2009-10-10T12:56:28Z</time></trkpt><trkpt lat="57.795166" lon="11.620675"><ele>3.50</ele><time>2009-10-10T12:56:59Z</time></trkpt><trkpt lat="57.795151" lon="11.619213"><ele>3.02</ele><time>2009-10-10T12:57:31Z</time></trkpt><trkpt lat="57.795165" lon="11.617606"><ele>3.02</ele><time>2009-10-10T12:58:05Z</time></trkpt><trkpt lat="57.795127" lon="11.616310"><ele>3.02</ele><time>2009-10-10T12:58:33Z</time></trkpt><trkpt lat="57.795121" lon="11.615136"><ele>3.02</ele><time>2009-10-10T12:58:58Z</time></trkpt><trkpt lat="57.795110" lon="11.613696"><ele>3.50</ele><time>2009-10-10T12:59:29Z</time></trkpt><trkpt lat="57.795177" lon="11.612215"><ele>2.54</ele><time>2009-10-10T13:00:01Z</time></trkpt><trkpt lat="57.795240" lon="11.610626"><ele>2.54</ele><time>2009-10-10T13:00:36Z</time></trkpt><trkpt lat="57.795349" lon="11.608881"><ele>2.06</ele><time>2009-10-10T13:01:14Z</time></trkpt><trkpt lat="57.795384" lon="11.607735"><ele>3.02</ele><time>2009-10-10T13:01:41Z</time></trkpt><trkpt lat="57.795401" lon="11.606963"><ele>3.02</ele><time>2009-10-10T13:01:57Z</time></trkpt><trkpt lat="57.795465" lon="11.606070"><ele>2.54</ele><time>2009-10-10T13:02:16Z</time></trkpt><trkpt lat="57.795589" lon="11.604564"><ele>2.06</ele><time>2009-10-10T13:02:48Z</time></trkpt><trkpt lat="57.795587" lon="11.602812"><ele>2.06</ele><time>2009-10-10T13:03:25Z</time></trkpt><trkpt lat="57.795466" lon="11.601510"><ele>2.06</ele><time>2009-10-10T13:03:56Z</time></trkpt><trkpt lat="57.795189" lon="11.600483"><ele>1.58</ele><time>2009-10-10T13:04:22Z</time></trkpt><trkpt lat="57.794790" lon="11.599460"><ele>1.58</ele><time>2009-10-10T13:04:49Z</time></trkpt><trkpt lat="57.794249" lon="11.598586"><ele>2.54</ele><time>2009-10-10T13:05:16Z</time></trkpt><trkpt lat="57.793707" lon="11.597961"><ele>2.06</ele><time>2009-10-10T13:05:39Z</time></trkpt><trkpt lat="57.792996" lon="11.597444"><ele>2.54</ele><time>2009-10-10T13:06:06Z</time></trkpt><trkpt lat="57.792305" lon="11.596773"><ele>1.58</ele><time>2009-10-10T13:06:34Z</time></trkpt><trkpt lat="57.791673" lon="11.596331"><ele>3.02</ele><time>2009-10-10T13:06:59Z</time></trkpt><trkpt lat="57.791125" lon="11.595783"><ele>2.06</ele><time>2009-10-10T13:07:22Z</time></trkpt><trkpt lat="57.790569" lon="11.595383"><ele>2.54</ele><time>2009-10-10T13:07:45Z</time></trkpt><trkpt lat="57.789817" lon="11.595220"><ele>2.06</ele><time>2009-10-10T13:08:13Z</time></trkpt><trkpt lat="57.789215" lon="11.595141"><ele>2.54</ele><time>2009-10-10T13:08:35Z</time></trkpt><trkpt lat="57.788580" lon="11.594955"><ele>2.54</ele><time>2009-10-10T13:08:58Z</time></trkpt><trkpt lat="57.787872" lon="11.594657"><ele>1.58</ele><time>2009-10-10T13:09:25Z</time></trkpt><trkpt lat="57.787231" lon="11.594589"><ele>2.06</ele><time>2009-10-10T13:09:50Z</time></trkpt><trkpt lat="57.786543" lon="11.594607"><ele>2.54</ele><time>2009-10-10T13:10:16Z</time></trkpt><trkpt lat="57.785855" lon="11.594366"><ele>2.54</ele><time>2009-10-10T13:10:41Z</time></trkpt><trkpt lat="57.785209" lon="11.594153"><ele>1.58</ele><time>2009-10-10T13:11:05Z</time></trkpt><trkpt lat="57.784451" lon="11.594139"><ele>2.06</ele><time>2009-10-10T13:11:34Z</time></trkpt><trkpt lat="57.783821" lon="11.594120"><ele>1.58</ele><time>2009-10-10T13:11:58Z</time></trkpt><trkpt lat="57.783144" lon="11.594199"><ele>2.06</ele><time>2009-10-10T13:12:24Z</time></trkpt><trkpt lat="57.782495" lon="11.594093"><ele>2.06</ele><time>2009-10-10T13:12:48Z</time></trkpt><trkpt lat="57.781810" lon="11.593993"><ele>1.10</ele><time>2009-10-10T13:13:13Z</time></trkpt><trkpt lat="57.781202" lon="11.594072"><ele>2.06</ele><time>2009-10-10T13:13:36Z</time></trkpt><trkpt lat="57.780607" lon="11.594081"><ele>1.58</ele><time>2009-10-10T13:13:58Z</time></trkpt><trkpt lat="57.780023" lon="11.594029"><ele>1.58</ele><time>2009-10-10T13:14:20Z</time></trkpt><trkpt lat="57.779303" lon="11.593960"><ele>1.10</ele><time>2009-10-10T13:14:47Z</time></trkpt><trkpt lat="57.778728" lon="11.593881"><ele>1.58</ele><time>2009-10-10T13:15:08Z</time></trkpt><trkpt lat="57.778046" lon="11.593892"><ele>1.58</ele><time>2009-10-10T13:15:35Z</time></trkpt><trkpt lat="57.777436" lon="11.594109"><ele>2.06</ele><time>2009-10-10T13:15:59Z</time></trkpt><trkpt lat="57.776842" lon="11.594304"><ele>1.58</ele><time>2009-10-10T13:16:22Z</time></trkpt><trkpt lat="57.776164" lon="11.594483"><ele>1.10</ele><time>2009-10-10T13:16:49Z</time></trkpt><trkpt lat="57.775518" lon="11.594405"><ele>1.10</ele><time>2009-10-10T13:17:13Z</time></trkpt><trkpt lat="57.774937" lon="11.594258"><ele>1.58</ele><time>2009-10-10T13:17:37Z</time></trkpt><trkpt lat="57.774410" lon="11.594066"><ele>0.62</ele><time>2009-10-10T13:18:00Z</time></trkpt><trkpt lat="57.773857" lon="11.593984"><ele>0.62</ele><time>2009-10-10T13:18:22Z</time></trkpt><trkpt lat="57.773319" lon="11.593883"><ele>0.14</ele><time>2009-10-10T13:18:43Z</time></trkpt><trkpt lat="57.772770" lon="11.593888"><ele>1.10</ele><time>2009-10-10T13:19:05Z</time></trkpt><trkpt lat="57.772208" lon="11.593818"><ele>1.10</ele><time>2009-10-10T13:19:27Z</time></trkpt><trkpt lat="57.771623" lon="11.593763"><ele>0.62</ele><time>2009-10-10T13:19:50Z</time></trkpt><trkpt lat="57.770995" lon="11.593764"><ele>1.58</ele><time>2009-10-10T13:20:15Z</time></trkpt><trkpt lat="57.770440" lon="11.593475"><ele>2.06</ele><time>2009-10-10T13:20:38Z</time></trkpt><trkpt lat="57.769907" lon="11.593456"><ele>1.10</ele><time>2009-10-10T13:20:58Z</time></trkpt><trkpt lat="57.769311" lon="11.593279"><ele>1.10</ele><time>2009-10-10T13:21:21Z</time></trkpt><trkpt lat="57.768643" lon="11.593232"><ele>0.62</ele><time>2009-10-10T13:21:46Z</time></trkpt><trkpt lat="57.768044" lon="11.593151"><ele>0.62</ele><time>2009-10-10T13:22:09Z</time></trkpt><trkpt lat="57.767320" lon="11.593308"><ele>1.10</ele><time>2009-10-10T13:22:36Z</time></trkpt><trkpt lat="57.766529" lon="11.593204"><ele>1.58</ele><time>2009-10-10T13:23:05Z</time></trkpt><trkpt lat="57.765934" lon="11.593170"><ele>0.62</ele><time>2009-10-10T13:23:27Z</time></trkpt><trkpt lat="57.765329" lon="11.593129"><ele>1.10</ele><time>2009-10-10T13:23:49Z</time></trkpt><trkpt lat="57.764741" lon="11.593092"><ele>0.62</ele><time>2009-10-10T13:24:11Z</time></trkpt><trkpt lat="57.764120" lon="11.593019"><ele>-0.34</ele><time>2009-10-10T13:24:34Z</time></trkpt><trkpt lat="57.763388" lon="11.593049"><ele>0.14</ele><time>2009-10-10T13:25:01Z</time></trkpt><trkpt lat="57.762743" lon="11.593084"><ele>0.62</ele><time>2009-10-10T13:25:25Z</time></trkpt><trkpt lat="57.762113" lon="11.593115"><ele>0.14</ele><time>2009-10-10T13:25:48Z</time></trkpt><trkpt lat="57.761562" lon="11.593126"><ele>0.62</ele><time>2009-10-10T13:26:08Z</time></trkpt><trkpt lat="57.760916" lon="11.593225"><ele>-0.34</ele><time>2009-10-10T13:26:32Z</time></trkpt><trkpt lat="57.760164" lon="11.593457"><ele>1.10</ele><time>2009-10-10T13:27:00Z</time></trkpt><trkpt lat="57.759478" lon="11.593559"><ele>0.62</ele><time>2009-10-10T13:27:26Z</time></trkpt><trkpt lat="57.758945" lon="11.593527"><ele>0.14</ele><time>2009-10-10T13:27:47Z</time></trkpt><trkpt lat="57.758411" lon="11.593535"><ele>0.62</ele><time>2009-10-10T13:28:09Z</time></trkpt><trkpt lat="57.757752" lon="11.593581"><ele>0.14</ele><time>2009-10-10T13:28:35Z</time></trkpt><trkpt lat="57.757149" lon="11.593528"><ele>-0.34</ele><time>2009-10-10T13:28:59Z</time></trkpt><trkpt lat="57.756582" lon="11.593514"><ele>-0.34</ele><time>2009-10-10T13:29:22Z</time></trkpt><trkpt lat="57.755993" lon="11.593255"><ele>-0.34</ele><time>2009-10-10T13:29:47Z</time></trkpt><trkpt lat="57.755412" lon="11.593240"><ele>-0.34</ele><time>2009-10-10T13:30:10Z</time></trkpt><trkpt lat="57.755079" lon="11.593294"><ele>-0.82</ele><time>2009-10-10T13:30:23Z</time></trkpt><trkpt lat="57.754543" lon="11.593350"><ele>-0.34</ele><time>2009-10-10T13:30:44Z</time></trkpt><trkpt lat="57.753987" lon="11.593408"><ele>-0.34</ele><time>2009-10-10T13:31:05Z</time></trkpt><trkpt lat="57.753306" lon="11.593359"><ele>0.14</ele><time>2009-10-10T13:31:31Z</time></trkpt><trkpt lat="57.752636" lon="11.593073"><ele>-0.82</ele><time>2009-10-10T13:31:57Z</time></trkpt><trkpt lat="57.751962" lon="11.592798"><ele>-0.82</ele><time>2009-10-10T13:32:23Z</time></trkpt><trkpt lat="57.751388" lon="11.592514"><ele>-1.30</ele><time>2009-10-10T13:32:46Z</time></trkpt><trkpt lat="57.750708" lon="11.592396"><ele>-0.34</ele><time>2009-10-10T13:33:13Z</time></trkpt><trkpt lat="57.750120" lon="11.592287"><ele>-0.82</ele><time>2009-10-10T13:33:36Z</time></trkpt><trkpt lat="57.749466" lon="11.592071"><ele>0.14</ele><time>2009-10-10T13:34:01Z</time></trkpt><trkpt lat="57.748843" lon="11.591769"><ele>-0.82</ele><time>2009-10-10T13:34:25Z</time></trkpt><trkpt lat="57.748270" lon="11.591627"><ele>-0.34</ele><time>2009-10-10T13:34:48Z</time></trkpt><trkpt lat="57.747509" lon="11.591658"><ele>-0.34</ele><time>2009-10-10T13:35:16Z</time></trkpt><trkpt lat="57.746789" lon="11.591701"><ele>-0.82</ele><time>2009-10-10T13:35:43Z</time></trkpt><trkpt lat="57.746075" lon="11.591909"><ele>-0.34</ele><time>2009-10-10T13:36:10Z</time></trkpt><trkpt lat="57.745426" lon="11.592200"><ele>0.14</ele><time>2009-10-10T13:36:35Z</time></trkpt><trkpt lat="57.744657" lon="11.592380"><ele>-0.82</ele><time>2009-10-10T13:37:04Z</time></trkpt><trkpt lat="57.743985" lon="11.592503"><ele>-0.82</ele><time>2009-10-10T13:37:30Z</time></trkpt><trkpt lat="57.743417" lon="11.592820"><ele>0.14</ele><time>2009-10-10T13:37:53Z</time></trkpt><trkpt lat="57.742876" lon="11.593065"><ele>-0.34</ele><time>2009-10-10T13:38:14Z</time></trkpt><trkpt lat="57.742284" lon="11.593194"><ele>-0.82</ele><time>2009-10-10T13:38:36Z</time></trkpt><trkpt lat="57.741637" lon="11.593358"><ele>0.14</ele><time>2009-10-10T13:39:00Z</time></trkpt><trkpt lat="57.741529" lon="11.593381"><ele>-0.34</ele><time>2009-10-10T13:39:04Z</time></trkpt><trkpt lat="57.740885" lon="11.593591"><ele>-1.30</ele><time>2009-10-10T13:39:28Z</time></trkpt><trkpt lat="57.740281" lon="11.593483"><ele>-1.30</ele><time>2009-10-10T13:39:50Z</time></trkpt><trkpt lat="57.739529" lon="11.593298"><ele>0.14</ele><time>2009-10-10T13:40:18Z</time></trkpt><trkpt lat="57.738936" lon="11.593199"><ele>-1.30</ele><time>2009-10-10T13:40:40Z</time></trkpt><trkpt lat="57.738356" lon="11.593017"><ele>-1.30</ele><time>2009-10-10T13:41:02Z</time></trkpt><trkpt lat="57.737832" lon="11.592823"><ele>-0.82</ele><time>2009-10-10T13:41:23Z</time></trkpt><trkpt lat="57.737231" lon="11.592699"><ele>-0.82</ele><time>2009-10-10T13:41:46Z</time></trkpt><trkpt lat="57.736575" lon="11.592504"><ele>-0.34</ele><time>2009-10-10T13:42:11Z</time></trkpt><trkpt lat="57.735955" lon="11.592556"><ele>-0.82</ele><time>2009-10-10T13:42:36Z</time></trkpt><trkpt lat="57.735292" lon="11.592508"><ele>-1.30</ele><time>2009-10-10T13:43:01Z</time></trkpt><trkpt lat="57.734705" lon="11.592354"><ele>-0.82</ele><time>2009-10-10T13:43:23Z</time></trkpt><trkpt lat="57.734041" lon="11.592169"><ele>-0.82</ele><time>2009-10-10T13:43:48Z</time></trkpt><trkpt lat="57.733399" lon="11.592083"><ele>-0.82</ele><time>2009-10-10T13:44:13Z</time></trkpt><trkpt lat="57.732766" lon="11.591990"><ele>0.14</ele><time>2009-10-10T13:44:36Z</time></trkpt><trkpt lat="57.732239" lon="11.591957"><ele>0.62</ele><time>2009-10-10T13:44:55Z</time></trkpt><trkpt lat="57.731792" lon="11.591867"><ele>-0.82</ele><time>2009-10-10T13:45:12Z</time></trkpt><trkpt lat="57.731046" lon="11.591669"><ele>-0.82</ele><time>2009-10-10T13:45:40Z</time></trkpt><trkpt lat="57.730573" lon="11.591303"><ele>-1.30</ele><time>2009-10-10T13:45:59Z</time></trkpt><trkpt lat="57.730393" lon="11.591107"><ele>-1.30</ele><time>2009-10-10T13:46:07Z</time></trkpt><trkpt lat="57.729747" lon="11.590962"><ele>-0.82</ele><time>2009-10-10T13:46:32Z</time></trkpt><trkpt lat="57.729030" lon="11.590898"><ele>-0.34</ele><time>2009-10-10T13:46:58Z</time></trkpt><trkpt lat="57.728277" lon="11.590789"><ele>0.14</ele><time>2009-10-10T13:47:25Z</time></trkpt><trkpt lat="57.727518" lon="11.590611"><ele>-0.34</ele><time>2009-10-10T13:47:53Z</time></trkpt><trkpt lat="57.726926" lon="11.590551"><ele>-0.82</ele><time>2009-10-10T13:48:15Z</time></trkpt><trkpt lat="57.726288" lon="11.590481"><ele>-0.34</ele><time>2009-10-10T13:48:39Z</time></trkpt><trkpt lat="57.725582" lon="11.590379"><ele>0.14</ele><time>2009-10-10T13:49:05Z</time></trkpt><trkpt lat="57.725000" lon="11.590316"><ele>0.14</ele><time>2009-10-10T13:49:26Z</time></trkpt><trkpt lat="57.724363" lon="11.590217"><ele>0.62</ele><time>2009-10-10T13:49:49Z</time></trkpt><trkpt lat="57.723742" lon="11.590103"><ele>-0.34</ele><time>2009-10-10T13:50:12Z</time></trkpt><trkpt lat="57.723066" lon="11.589993"><ele>0.14</ele><time>2009-10-10T13:50:37Z</time></trkpt><trkpt lat="57.722411" lon="11.589939"><ele>-0.34</ele><time>2009-10-10T13:51:01Z</time></trkpt><trkpt lat="57.721708" lon="11.589819"><ele>-0.34</ele><time>2009-10-10T13:51:26Z</time></trkpt><trkpt lat="57.721019" lon="11.589753"><ele>-0.34</ele><time>2009-10-10T13:51:51Z</time></trkpt><trkpt lat="57.720397" lon="11.589628"><ele>-0.34</ele><time>2009-10-10T13:52:13Z</time></trkpt><trkpt lat="57.719686" lon="11.589484"><ele>-0.34</ele><time>2009-10-10T13:52:39Z</time></trkpt><trkpt lat="57.718983" lon="11.589502"><ele>1.10</ele><time>2009-10-10T13:53:05Z</time></trkpt><trkpt lat="57.718328" lon="11.589497"><ele>-0.34</ele><time>2009-10-10T13:53:29Z</time></trkpt><trkpt lat="57.717615" lon="11.589541"><ele>-0.34</ele><time>2009-10-10T13:53:55Z</time></trkpt><trkpt lat="57.717110" lon="11.589541"><ele>0.62</ele><time>2009-10-10T13:54:15Z</time></trkpt><trkpt lat="57.716715" lon="11.589595"><ele>1.58</ele><time>2009-10-10T13:54:31Z</time></trkpt><trkpt lat="57.716136" lon="11.589699"><ele>1.10</ele><time>2009-10-10T13:54:54Z</time></trkpt><trkpt lat="57.715473" lon="11.589801"><ele>0.62</ele><time>2009-10-10T13:55:20Z</time></trkpt><trkpt lat="57.714824" lon="11.589970"><ele>0.14</ele><time>2009-10-10T13:55:46Z</time></trkpt><trkpt lat="57.714189" lon="11.590058"><ele>0.62</ele><time>2009-10-10T13:56:11Z</time></trkpt><trkpt lat="57.713721" lon="11.590191"><ele>1.10</ele><time>2009-10-10T13:56:30Z</time></trkpt><trkpt lat="57.713104" lon="11.590263"><ele>1.10</ele><time>2009-10-10T13:56:54Z</time></trkpt><trkpt lat="57.712573" lon="11.590265"><ele>0.62</ele><time>2009-10-10T13:57:14Z</time></trkpt><trkpt lat="57.712153" lon="11.590267"><ele>-0.34</ele><time>2009-10-10T13:57:30Z</time></trkpt><trkpt lat="57.711495" lon="11.590238"><ele>0.62</ele><time>2009-10-10T13:57:55Z</time></trkpt><trkpt lat="57.710842" lon="11.590247"><ele>0.62</ele><time>2009-10-10T13:58:20Z</time></trkpt><trkpt lat="57.710685" lon="11.590249"><ele>-0.34</ele><time>2009-10-10T13:58:26Z</time></trkpt><trkpt lat="57.710060" lon="11.590317"><ele>0.14</ele><time>2009-10-10T13:58:50Z</time></trkpt><trkpt lat="57.709457" lon="11.590302"><ele>-0.34</ele><time>2009-10-10T13:59:13Z</time></trkpt><trkpt lat="57.708859" lon="11.590383"><ele>0.14</ele><time>2009-10-10T13:59:36Z</time></trkpt><trkpt lat="57.708186" lon="11.590431"><ele>0.14</ele><time>2009-10-10T14:00:02Z</time></trkpt><trkpt lat="57.707462" lon="11.590273"><ele>0.14</ele><time>2009-10-10T14:00:30Z</time></trkpt><trkpt lat="57.706759" lon="11.590262"><ele>0.14</ele><time>2009-10-10T14:00:57Z</time></trkpt><trkpt lat="57.706074" lon="11.590146"><ele>-0.82</ele><time>2009-10-10T14:01:23Z</time></trkpt><trkpt lat="57.705471" lon="11.590037"><ele>-0.82</ele><time>2009-10-10T14:01:47Z</time></trkpt><trkpt lat="57.704851" lon="11.590165"><ele>0.14</ele><time>2009-10-10T14:02:11Z</time></trkpt><trkpt lat="57.704186" lon="11.590217"><ele>-0.34</ele><time>2009-10-10T14:02:37Z</time></trkpt><trkpt lat="57.703597" lon="11.590335"><ele>-0.34</ele><time>2009-10-10T14:03:00Z</time></trkpt><trkpt lat="57.703002" lon="11.590410"><ele>0.14</ele><time>2009-10-10T14:03:23Z</time></trkpt><trkpt lat="57.702431" lon="11.590500"><ele>0.62</ele><time>2009-10-10T14:03:45Z</time></trkpt><trkpt lat="57.701821" lon="11.590482"><ele>-0.34</ele><time>2009-10-10T14:04:08Z</time></trkpt><trkpt lat="57.701255" lon="11.590452"><ele>-0.34</ele><time>2009-10-10T14:04:30Z</time></trkpt><trkpt lat="57.700695" lon="11.590488"><ele>-0.82</ele><time>2009-10-10T14:04:52Z</time></trkpt><trkpt lat="57.700042" lon="11.590444"><ele>0.14</ele><time>2009-10-10T14:05:17Z</time></trkpt><trkpt lat="57.699477" lon="11.590435"><ele>0.14</ele><time>2009-10-10T14:05:38Z</time></trkpt><trkpt lat="57.698817" lon="11.590369"><ele>0.14</ele><time>2009-10-10T14:06:03Z</time></trkpt><trkpt lat="57.698169" lon="11.590486"><ele>-0.82</ele><time>2009-10-10T14:06:28Z</time></trkpt><trkpt lat="57.697479" lon="11.590477"><ele>-0.82</ele><time>2009-10-10T14:06:54Z</time></trkpt><trkpt lat="57.696905" lon="11.590471"><ele>-0.82</ele><time>2009-10-10T14:07:16Z</time></trkpt><trkpt lat="57.696255" lon="11.590436"><ele>-0.82</ele><time>2009-10-10T14:07:41Z</time></trkpt><trkpt lat="57.695555" lon="11.590284"><ele>-0.82</ele><time>2009-10-10T14:08:08Z</time></trkpt><trkpt lat="57.695341" lon="11.590224"><ele>-1.30</ele><time>2009-10-10T14:08:16Z</time></trkpt><trkpt lat="57.694806" lon="11.590256"><ele>-1.30</ele><time>2009-10-10T14:08:37Z</time></trkpt><trkpt lat="57.694156" lon="11.590284"><ele>-0.82</ele><time>2009-10-10T14:09:02Z</time></trkpt><trkpt lat="57.693558" lon="11.590368"><ele>-0.82</ele><time>2009-10-10T14:09:25Z</time></trkpt><trkpt lat="57.693005" lon="11.590477"><ele>-1.30</ele><time>2009-10-10T14:09:47Z</time></trkpt><trkpt lat="57.692294" lon="11.590480"><ele>-1.79</ele><time>2009-10-10T14:10:15Z</time></trkpt><trkpt lat="57.691674" lon="11.590493"><ele>-1.30</ele><time>2009-10-10T14:10:40Z</time></trkpt><trkpt lat="57.691036" lon="11.590475"><ele>-0.34</ele><time>2009-10-10T14:11:05Z</time></trkpt><trkpt lat="57.690466" lon="11.590470"><ele>-0.82</ele><time>2009-10-10T14:11:28Z</time></trkpt><trkpt lat="57.689788" lon="11.590601"><ele>-1.30</ele><time>2009-10-10T14:11:57Z</time></trkpt><trkpt lat="57.689101" lon="11.590685"><ele>-1.79</ele><time>2009-10-10T14:12:26Z</time></trkpt><trkpt lat="57.688478" lon="11.590794"><ele>-1.30</ele><time>2009-10-10T14:12:52Z</time></trkpt><trkpt lat="57.687829" lon="11.590879"><ele>-2.27</ele><time>2009-10-10T14:13:18Z</time></trkpt><trkpt lat="57.687131" lon="11.590923"><ele>-1.79</ele><time>2009-10-10T14:13:45Z</time></trkpt><trkpt lat="57.686526" lon="11.591057"><ele>-1.30</ele><time>2009-10-10T14:14:10Z</time></trkpt><trkpt lat="57.685913" lon="11.591088"><ele>-1.30</ele><time>2009-10-10T14:14:34Z</time></trkpt><trkpt lat="57.685223" lon="11.591040"><ele>-1.79</ele><time>2009-10-10T14:15:00Z</time></trkpt><trkpt lat="57.684582" lon="11.591058"><ele>-2.27</ele><time>2009-10-10T14:15:25Z</time></trkpt><trkpt lat="57.684480" lon="11.591068"><ele>-0.82</ele><time>2009-10-10T14:15:29Z</time></trkpt><trkpt lat="57.683775" lon="11.591124"><ele>-2.27</ele><time>2009-10-10T14:15:56Z</time></trkpt><trkpt lat="57.683205" lon="11.591154"><ele>-1.79</ele><time>2009-10-10T14:16:18Z</time></trkpt><trkpt lat="57.682547" lon="11.591194"><ele>-2.27</ele><time>2009-10-10T14:16:43Z</time></trkpt><trkpt lat="57.681901" lon="11.591217"><ele>-1.30</ele><time>2009-10-10T14:17:07Z</time></trkpt><trkpt lat="57.681142" lon="11.591203"><ele>-1.30</ele><time>2009-10-10T14:17:35Z</time></trkpt><trkpt lat="57.680518" lon="11.591204"><ele>-1.79</ele><time>2009-10-10T14:17:58Z</time></trkpt><trkpt lat="57.679766" lon="11.591259"><ele>-1.79</ele><time>2009-10-10T14:18:26Z</time></trkpt><trkpt lat="57.679124" lon="11.591431"><ele>-1.79</ele><time>2009-10-10T14:18:52Z</time></trkpt><trkpt lat="57.678469" lon="11.591557"><ele>-1.79</ele><time>2009-10-10T14:19:18Z</time></trkpt><trkpt lat="57.677885" lon="11.591693"><ele>-2.27</ele><time>2009-10-10T14:19:41Z</time></trkpt><trkpt lat="57.677306" lon="11.591761"><ele>-1.79</ele><time>2009-10-10T14:20:04Z</time></trkpt><trkpt lat="57.677210" lon="11.591809"><ele>-1.79</ele><time>2009-10-10T14:20:08Z</time></trkpt><trkpt lat="57.676598" lon="11.592053"><ele>-2.27</ele><time>2009-10-10T14:20:33Z</time></trkpt><trkpt lat="57.676025" lon="11.592313"><ele>-2.27</ele><time>2009-10-10T14:20:57Z</time></trkpt><trkpt lat="57.675381" lon="11.592623"><ele>-1.79</ele><time>2009-10-10T14:21:24Z</time></trkpt><trkpt lat="57.674776" lon="11.592855"><ele>-2.27</ele><time>2009-10-10T14:21:49Z</time></trkpt><trkpt lat="57.674195" lon="11.593052"><ele>-2.75</ele><time>2009-10-10T14:22:12Z</time></trkpt><trkpt lat="57.673505" lon="11.593317"><ele>-2.27</ele><time>2009-10-10T14:22:39Z</time></trkpt><trkpt lat="57.672892" lon="11.593545"><ele>-2.27</ele><time>2009-10-10T14:23:03Z</time></trkpt><trkpt lat="57.672213" lon="11.593788"><ele>-1.79</ele><time>2009-10-10T14:23:30Z</time></trkpt><trkpt lat="57.671589" lon="11.593973"><ele>-2.75</ele><time>2009-10-10T14:23:55Z</time></trkpt><trkpt lat="57.671005" lon="11.594250"><ele>-2.75</ele><time>2009-10-10T14:24:20Z</time></trkpt><trkpt lat="57.670479" lon="11.594733"><ele>-1.79</ele><time>2009-10-10T14:24:46Z</time></trkpt><trkpt lat="57.669858" lon="11.595118"><ele>-1.79</ele><time>2009-10-10T14:25:11Z</time></trkpt><trkpt lat="57.669280" lon="11.595544"><ele>-2.27</ele><time>2009-10-10T14:25:35Z</time></trkpt><trkpt lat="57.668756" lon="11.596010"><ele>-2.27</ele><time>2009-10-10T14:26:00Z</time></trkpt><trkpt lat="57.668144" lon="11.596519"><ele>-1.79</ele><time>2009-10-10T14:26:29Z</time></trkpt><trkpt lat="57.667622" lon="11.596859"><ele>-2.27</ele><time>2009-10-10T14:26:51Z</time></trkpt><trkpt lat="57.667138" lon="11.597178"><ele>-0.82</ele><time>2009-10-10T14:27:12Z</time></trkpt><trkpt lat="57.666882" lon="11.597353"><ele>-4.19</ele><time>2009-10-10T14:27:24Z</time></trkpt><trkpt lat="57.666825" lon="11.597395"><ele>-0.82</ele><time>2009-10-10T14:27:27Z</time></trkpt><trkpt lat="57.666507" lon="11.597765"><ele>-1.30</ele><time>2009-10-10T14:27:46Z</time></trkpt><trkpt lat="57.666464" lon="11.597885"><ele>-1.79</ele><time>2009-10-10T14:27:51Z</time></trkpt><trkpt lat="57.666440" lon="11.597963"><ele>-1.30</ele><time>2009-10-10T14:27:55Z</time></trkpt><trkpt lat="57.666344" lon="11.598049"><ele>-1.30</ele><time>2009-10-10T14:28:02Z</time></trkpt><trkpt lat="57.665934" lon="11.598295"><ele>-1.79</ele><time>2009-10-10T14:28:21Z</time></trkpt><trkpt lat="57.665404" lon="11.598624"><ele>-1.79</ele><time>2009-10-10T14:28:43Z</time></trkpt><trkpt lat="57.664767" lon="11.599064"><ele>-2.27</ele><time>2009-10-10T14:29:10Z</time></trkpt><trkpt lat="57.664263" lon="11.599593"><ele>-2.27</ele><time>2009-10-10T14:29:34Z</time></trkpt><trkpt lat="57.663679" lon="11.600084"><ele>-0.82</ele><time>2009-10-10T14:29:59Z</time></trkpt><trkpt lat="57.663080" lon="11.600579"><ele>-1.30</ele><time>2009-10-10T14:30:24Z</time></trkpt><trkpt lat="57.662461" lon="11.600950"><ele>-0.34</ele><time>2009-10-10T14:30:49Z</time></trkpt><trkpt lat="57.661872" lon="11.601410"><ele>-1.30</ele><time>2009-10-10T14:31:13Z</time></trkpt><trkpt lat="57.661376" lon="11.602002"><ele>-0.82</ele><time>2009-10-10T14:31:37Z</time></trkpt><trkpt lat="57.660820" lon="11.602711"><ele>0.62</ele><time>2009-10-10T14:32:05Z</time></trkpt><trkpt lat="57.660245" lon="11.603269"><ele>-0.34</ele><time>2009-10-10T14:32:29Z</time></trkpt><trkpt lat="57.659689" lon="11.603949"><ele>0.14</ele><time>2009-10-10T14:32:57Z</time></trkpt><trkpt lat="57.658995" lon="11.604613"><ele>-0.34</ele><time>2009-10-10T14:33:26Z</time></trkpt><trkpt lat="57.658483" lon="11.605231"><ele>-0.82</ele><time>2009-10-10T14:33:50Z</time></trkpt><trkpt lat="57.657929" lon="11.605982"><ele>-0.34</ele><time>2009-10-10T14:34:17Z</time></trkpt><trkpt lat="57.657464" lon="11.606644"><ele>-0.34</ele><time>2009-10-10T14:34:44Z</time></trkpt><trkpt lat="57.656925" lon="11.607347"><ele>-0.34</ele><time>2009-10-10T14:35:10Z</time></trkpt><trkpt lat="57.656409" lon="11.608095"><ele>-0.82</ele><time>2009-10-10T14:35:36Z</time></trkpt><trkpt lat="57.655803" lon="11.608837"><ele>-0.34</ele><time>2009-10-10T14:36:05Z</time></trkpt><trkpt lat="57.655193" lon="11.609604"><ele>0.14</ele><time>2009-10-10T14:36:36Z</time></trkpt><trkpt lat="57.654696" lon="11.610338"><ele>0.14</ele><time>2009-10-10T14:37:07Z</time></trkpt><trkpt lat="57.654227" lon="11.611127"><ele>0.14</ele><time>2009-10-10T14:37:38Z</time></trkpt><trkpt lat="57.653539" lon="11.611992"><ele>0.14</ele><time>2009-10-10T14:38:12Z</time></trkpt><trkpt lat="57.652922" lon="11.612848"><ele>-0.34</ele><time>2009-10-10T14:38:44Z</time></trkpt><trkpt lat="57.652289" lon="11.613675"><ele>0.14</ele><time>2009-10-10T14:39:17Z</time></trkpt><trkpt lat="57.651941" lon="11.614187"><ele>1.10</ele><time>2009-10-10T14:39:36Z</time></trkpt><trkpt lat="57.651479" lon="11.614911"><ele>1.10</ele><time>2009-10-10T14:40:07Z</time></trkpt><trkpt lat="57.651025" lon="11.615557"><ele>1.10</ele><time>2009-10-10T14:40:36Z</time></trkpt><trkpt lat="57.650513" lon="11.616122"><ele>1.10</ele><time>2009-10-10T14:41:05Z</time></trkpt><trkpt lat="57.649937" lon="11.616580"><ele>1.10</ele><time>2009-10-10T14:41:34Z</time></trkpt><trkpt lat="57.649310" lon="11.617240"><ele>1.58</ele><time>2009-10-10T14:42:02Z</time></trkpt><trkpt lat="57.648741" lon="11.618019"><ele>2.06</ele><time>2009-10-10T14:42:32Z</time></trkpt><trkpt lat="57.648253" lon="11.618517"><ele>0.14</ele><time>2009-10-10T14:42:57Z</time></trkpt><trkpt lat="57.647714" lon="11.619156"><ele>0.62</ele><time>2009-10-10T14:43:26Z</time></trkpt><trkpt lat="57.647602" lon="11.619600"><ele>1.10</ele><time>2009-10-10T14:43:51Z</time></trkpt><trkpt lat="57.647942" lon="11.620162"><ele>1.58</ele><time>2009-10-10T14:44:17Z</time></trkpt><trkpt lat="57.648285" lon="11.620869"><ele>1.58</ele><time>2009-10-10T14:44:43Z</time></trkpt><trkpt lat="57.648631" lon="11.621675"><ele>1.10</ele><time>2009-10-10T14:45:11Z</time></trkpt><trkpt lat="57.649048" lon="11.622615"><ele>0.62</ele><time>2009-10-10T14:45:43Z</time></trkpt><trkpt lat="57.649460" lon="11.623516"><ele>0.62</ele><time>2009-10-10T14:46:17Z</time></trkpt><trkpt lat="57.649838" lon="11.624252"><ele>1.10</ele><time>2009-10-10T14:46:47Z</time></trkpt><trkpt lat="57.650217" lon="11.625020"><ele>1.10</ele><time>2009-10-10T14:47:16Z</time></trkpt><trkpt lat="57.650586" lon="11.625805"><ele>1.10</ele><time>2009-10-10T14:47:44Z</time></trkpt><trkpt lat="57.650970" lon="11.626624"><ele>1.58</ele><time>2009-10-10T14:48:15Z</time></trkpt><trkpt lat="57.651295" lon="11.627447"><ele>1.10</ele><time>2009-10-10T14:48:43Z</time></trkpt><trkpt lat="57.651599" lon="11.628247"><ele>0.14</ele><time>2009-10-10T14:49:11Z</time></trkpt><trkpt lat="57.651914" lon="11.629010"><ele>0.14</ele><time>2009-10-10T14:49:40Z</time></trkpt><trkpt lat="57.652156" lon="11.629812"><ele>0.14</ele><time>2009-10-10T14:50:08Z</time></trkpt><trkpt lat="57.652420" lon="11.630323"><ele>0.14</ele><time>2009-10-10T14:50:34Z</time></trkpt><trkpt lat="57.652690" lon="11.630980"><ele>0.62</ele><time>2009-10-10T14:51:04Z</time></trkpt><trkpt lat="57.652606" lon="11.631037"><ele>0.14</ele><time>2009-10-10T14:51:16Z</time></trkpt><trkpt lat="57.652195" lon="11.631453"><ele>0.14</ele><time>2009-10-10T14:51:45Z</time></trkpt><trkpt lat="57.651867" lon="11.631825"><ele>0.14</ele><time>2009-10-10T14:52:07Z</time></trkpt><trkpt lat="57.651345" lon="11.632403"><ele>-0.34</ele><time>2009-10-10T14:52:34Z</time></trkpt><trkpt lat="57.650701" lon="11.633145"><ele>0.14</ele><time>2009-10-10T14:53:05Z</time></trkpt><trkpt lat="57.650153" lon="11.633853"><ele>0.62</ele><time>2009-10-10T14:53:34Z</time></trkpt><trkpt lat="57.649782" lon="11.634431"><ele>0.14</ele><time>2009-10-10T14:53:57Z</time></trkpt><trkpt lat="57.649825" lon="11.634524"><ele>0.62</ele><time>2009-10-10T14:54:02Z</time></trkpt><trkpt lat="57.650163" lon="11.635146"><ele>0.14</ele><time>2009-10-10T14:54:30Z</time></trkpt><trkpt lat="57.650526" lon="11.635826"><ele>0.14</ele><time>2009-10-10T14:54:56Z</time></trkpt><trkpt lat="57.650903" lon="11.636412"><ele>0.14</ele><time>2009-10-10T14:55:22Z</time></trkpt><trkpt lat="57.651240" lon="11.637020"><ele>0.14</ele><time>2009-10-10T14:55:44Z</time></trkpt><trkpt lat="57.651624" lon="11.637760"><ele>0.62</ele><time>2009-10-10T14:56:12Z</time></trkpt><trkpt lat="57.651952" lon="11.638454"><ele>0.62</ele><time>2009-10-10T14:56:39Z</time></trkpt><trkpt lat="57.652270" lon="11.639084"><ele>0.14</ele><time>2009-10-10T14:57:05Z</time></trkpt><trkpt lat="57.652635" lon="11.639685"><ele>0.14</ele><time>2009-10-10T14:57:30Z</time></trkpt><trkpt lat="57.653008" lon="11.640302"><ele>0.14</ele><time>2009-10-10T14:57:55Z</time></trkpt><trkpt lat="57.653279" lon="11.640718"><ele>-0.34</ele><time>2009-10-10T14:58:16Z</time></trkpt><trkpt lat="57.653566" lon="11.641104"><ele>0.14</ele><time>2009-10-10T14:58:37Z</time></trkpt><trkpt lat="57.653929" lon="11.641653"><ele>-0.34</ele><time>2009-10-10T14:59:02Z</time></trkpt><trkpt lat="57.654030" lon="11.641958"><ele>0.14</ele><time>2009-10-10T14:59:17Z</time></trkpt><trkpt lat="57.653631" lon="11.642442"><ele>-0.82</ele><time>2009-10-10T14:59:44Z</time></trkpt><trkpt lat="57.653074" lon="11.643058"><ele>-0.34</ele><time>2009-10-10T15:00:13Z</time></trkpt><trkpt lat="57.652530" lon="11.643741"><ele>-0.82</ele><time>2009-10-10T15:00:40Z</time></trkpt><trkpt lat="57.652146" lon="11.644426"><ele>-0.82</ele><time>2009-10-10T15:01:04Z</time></trkpt><trkpt lat="57.651818" lon="11.644931"><ele>-0.34</ele><time>2009-10-10T15:01:29Z</time></trkpt><trkpt lat="57.651490" lon="11.645494"><ele>-0.82</ele><time>2009-10-10T15:01:57Z</time></trkpt><trkpt lat="57.651150" lon="11.646085"><ele>-1.30</ele><time>2009-10-10T15:02:22Z</time></trkpt><trkpt lat="57.650791" lon="11.646745"><ele>-1.30</ele><time>2009-10-10T15:02:47Z</time></trkpt><trkpt lat="57.650445" lon="11.647302"><ele>-1.30</ele><time>2009-10-10T15:03:12Z</time></trkpt><trkpt lat="57.650065" lon="11.647893"><ele>-0.34</ele><time>2009-10-10T15:03:34Z</time></trkpt><trkpt lat="57.649768" lon="11.648622"><ele>-0.34</ele><time>2009-10-10T15:03:57Z</time></trkpt><trkpt lat="57.650074" lon="11.648961"><ele>-0.34</ele><time>2009-10-10T15:04:16Z</time></trkpt><trkpt lat="57.650509" lon="11.649468"><ele>-0.34</ele><time>2009-10-10T15:04:37Z</time></trkpt><trkpt lat="57.650957" lon="11.650009"><ele>0.14</ele><time>2009-10-10T15:04:59Z</time></trkpt><trkpt lat="57.651390" lon="11.650538"><ele>0.62</ele><time>2009-10-10T15:05:21Z</time></trkpt><trkpt lat="57.651756" lon="11.651043"><ele>-0.34</ele><time>2009-10-10T15:05:42Z</time></trkpt><trkpt lat="57.652115" lon="11.651541"><ele>-0.34</ele><time>2009-10-10T15:06:03Z</time></trkpt><trkpt lat="57.652441" lon="11.652022"><ele>-0.34</ele><time>2009-10-10T15:06:25Z</time></trkpt><trkpt lat="57.652833" lon="11.652569"><ele>-0.34</ele><time>2009-10-10T15:06:48Z</time></trkpt><trkpt lat="57.653215" lon="11.653093"><ele>0.14</ele><time>2009-10-10T15:07:13Z</time></trkpt><trkpt lat="57.653576" lon="11.653627"><ele>-0.34</ele><time>2009-10-10T15:07:38Z</time></trkpt><trkpt lat="57.653960" lon="11.654227"><ele>-0.34</ele><time>2009-10-10T15:08:01Z</time></trkpt><trkpt lat="57.654341" lon="11.654823"><ele>-0.82</ele><time>2009-10-10T15:08:24Z</time></trkpt><trkpt lat="57.654808" lon="11.655519"><ele>-0.82</ele><time>2009-10-10T15:08:51Z</time></trkpt><trkpt lat="57.655299" lon="11.656254"><ele>0.14</ele><time>2009-10-10T15:09:21Z</time></trkpt><trkpt lat="57.655717" lon="11.656877"><ele>-0.82</ele><time>2009-10-10T15:09:43Z</time></trkpt><trkpt lat="57.656057" lon="11.657618"><ele>-0.34</ele><time>2009-10-10T15:10:08Z</time></trkpt><trkpt lat="57.656277" lon="11.658142"><ele>-0.34</ele><time>2009-10-10T15:10:31Z</time></trkpt><trkpt lat="57.656498" lon="11.658635"><ele>-0.34</ele><time>2009-10-10T15:10:59Z</time></trkpt><trkpt lat="57.656824" lon="11.659165"><ele>0.14</ele><time>2009-10-10T15:11:25Z</time></trkpt><trkpt lat="57.657228" lon="11.659892"><ele>-0.34</ele><time>2009-10-10T15:11:52Z</time></trkpt><trkpt lat="57.657726" lon="11.660675"><ele>-0.34</ele><time>2009-10-10T15:12:20Z</time></trkpt><trkpt lat="57.658187" lon="11.661300"><ele>-0.34</ele><time>2009-10-10T15:12:46Z</time></trkpt><trkpt lat="57.658570" lon="11.661798"><ele>-0.34</ele><time>2009-10-10T15:13:05Z</time></trkpt><trkpt lat="57.659162" lon="11.662551"><ele>-0.34</ele><time>2009-10-10T15:13:33Z</time></trkpt><trkpt lat="57.659766" lon="11.663299"><ele>0.14</ele><time>2009-10-10T15:14:00Z</time></trkpt><trkpt lat="57.660056" lon="11.663983"><ele>-0.34</ele><time>2009-10-10T15:14:21Z</time></trkpt><trkpt lat="57.659675" lon="11.664231"><ele>-0.34</ele><time>2009-10-10T15:14:43Z</time></trkpt><trkpt lat="57.659123" lon="11.664575"><ele>-0.34</ele><time>2009-10-10T15:15:06Z</time></trkpt><trkpt lat="57.658533" lon="11.665101"><ele>0.14</ele><time>2009-10-10T15:15:32Z</time></trkpt><trkpt lat="57.658091" lon="11.665653"><ele>-0.82</ele><time>2009-10-10T15:15:56Z</time></trkpt><trkpt lat="57.657750" lon="11.665980"><ele>-0.34</ele><time>2009-10-10T15:16:15Z</time></trkpt><trkpt lat="57.657396" lon="11.666400"><ele>-0.82</ele><time>2009-10-10T15:16:35Z</time></trkpt><trkpt lat="57.657457" lon="11.666672"><ele>-0.34</ele><time>2009-10-10T15:16:47Z</time></trkpt><trkpt lat="57.657453" lon="11.666860"><ele>-0.82</ele><time>2009-10-10T15:16:56Z</time></trkpt><trkpt lat="57.657461" lon="11.666904"><ele>0.14</ele><time>2009-10-10T15:17:03Z</time></trkpt><trkpt lat="57.657532" lon="11.667001"><ele>-0.34</ele><time>2009-10-10T15:17:10Z</time></trkpt><trkpt lat="57.657829" lon="11.667675"><ele>0.14</ele><time>2009-10-10T15:17:33Z</time></trkpt><trkpt lat="57.658135" lon="11.668354"><ele>-0.34</ele><time>2009-10-10T15:17:56Z</time></trkpt><trkpt lat="57.658489" lon="11.668955"><ele>-0.82</ele><time>2009-10-10T15:18:19Z</time></trkpt><trkpt lat="57.658868" lon="11.669518"><ele>-0.34</ele><time>2009-10-10T15:18:42Z</time></trkpt><trkpt lat="57.659358" lon="11.670188"><ele>-0.34</ele><time>2009-10-10T15:19:08Z</time></trkpt><trkpt lat="57.659793" lon="11.670818"><ele>-0.34</ele><time>2009-10-10T15:19:30Z</time></trkpt><trkpt lat="57.660183" lon="11.671477"><ele>0.14</ele><time>2009-10-10T15:19:52Z</time></trkpt><trkpt lat="57.660630" lon="11.672252"><ele>-0.34</ele><time>2009-10-10T15:20:17Z</time></trkpt><trkpt lat="57.661014" lon="11.672964"><ele>-0.34</ele><time>2009-10-10T15:20:39Z</time></trkpt><trkpt lat="57.661383" lon="11.673678"><ele>0.14</ele><time>2009-10-10T15:21:02Z</time></trkpt><trkpt lat="57.661815" lon="11.674510"><ele>-0.34</ele><time>2009-10-10T15:21:30Z</time></trkpt><trkpt lat="57.662174" lon="11.675283"><ele>-0.34</ele><time>2009-10-10T15:21:57Z</time></trkpt><trkpt lat="57.662264" lon="11.675697"><ele>-0.34</ele><time>2009-10-10T15:22:15Z</time></trkpt><trkpt lat="57.661970" lon="11.676026"><ele>-0.82</ele><time>2009-10-10T15:22:37Z</time></trkpt><trkpt lat="57.661650" lon="11.676523"><ele>-0.34</ele><time>2009-10-10T15:22:58Z</time></trkpt><trkpt lat="57.661362" lon="11.676960"><ele>-0.34</ele><time>2009-10-10T15:23:17Z</time></trkpt><trkpt lat="57.661009" lon="11.677500"><ele>-0.34</ele><time>2009-10-10T15:23:41Z</time></trkpt><trkpt lat="57.660735" lon="11.677992"><ele>-0.82</ele><time>2009-10-10T15:24:01Z</time></trkpt><trkpt lat="57.660951" lon="11.678287"><ele>-0.34</ele><time>2009-10-10T15:24:19Z</time></trkpt><trkpt lat="57.661394" lon="11.678810"><ele>-0.34</ele><time>2009-10-10T15:24:42Z</time></trkpt><trkpt lat="57.661958" lon="11.679328"><ele>-0.34</ele><time>2009-10-10T15:25:07Z</time></trkpt><trkpt lat="57.662549" lon="11.679828"><ele>-0.34</ele><time>2009-10-10T15:25:30Z</time></trkpt><trkpt lat="57.663178" lon="11.680225"><ele>-0.34</ele><time>2009-10-10T15:25:53Z</time></trkpt><trkpt lat="57.663732" lon="11.680630"><ele>-0.34</ele><time>2009-10-10T15:26:14Z</time></trkpt><trkpt lat="57.664324" lon="11.680850"><ele>-0.34</ele><time>2009-10-10T15:26:34Z</time></trkpt><trkpt lat="57.664851" lon="11.681139"><ele>-0.34</ele><time>2009-10-10T15:26:52Z</time></trkpt><trkpt lat="57.665456" lon="11.681462"><ele>-1.30</ele><time>2009-10-10T15:27:13Z</time></trkpt><trkpt lat="57.665483" lon="11.681482"><ele>-0.34</ele><time>2009-10-10T15:27:14Z</time></trkpt><trkpt lat="57.666161" lon="11.681790"><ele>-0.34</ele><time>2009-10-10T15:27:37Z</time></trkpt><trkpt lat="57.666787" lon="11.681999"><ele>-0.34</ele><time>2009-10-10T15:27:58Z</time></trkpt><trkpt lat="57.667446" lon="11.682252"><ele>-0.34</ele><time>2009-10-10T15:28:20Z</time></trkpt><trkpt lat="57.668096" lon="11.682522"><ele>-0.34</ele><time>2009-10-10T15:28:42Z</time></trkpt><trkpt lat="57.668634" lon="11.682774"><ele>0.14</ele><time>2009-10-10T15:29:01Z</time></trkpt><trkpt lat="57.669288" lon="11.683053"><ele>-0.34</ele><time>2009-10-10T15:29:24Z</time></trkpt><trkpt lat="57.669739" lon="11.683001"><ele>0.62</ele><time>2009-10-10T15:29:40Z</time></trkpt><trkpt lat="57.670228" lon="11.683024"><ele>0.62</ele><time>2009-10-10T15:29:57Z</time></trkpt><trkpt lat="57.670785" lon="11.682964"><ele>0.14</ele><time>2009-10-10T15:30:16Z</time></trkpt><trkpt lat="57.671309" lon="11.682997"><ele>-0.34</ele><time>2009-10-10T15:30:35Z</time></trkpt><trkpt lat="57.671971" lon="11.683127"><ele>-1.30</ele><time>2009-10-10T15:30:59Z</time></trkpt><trkpt lat="57.672024" lon="11.683163"><ele>-1.30</ele><time>2009-10-10T15:31:01Z</time></trkpt><trkpt lat="57.672336" lon="11.683331"><ele>-0.34</ele><time>2009-10-10T15:31:13Z</time></trkpt><trkpt lat="57.672923" lon="11.683443"><ele>-0.82</ele><time>2009-10-10T15:31:33Z</time></trkpt><trkpt lat="57.673514" lon="11.683574"><ele>-1.30</ele><time>2009-10-10T15:31:54Z</time></trkpt><trkpt lat="57.674097" lon="11.683696"><ele>-0.34</ele><time>2009-10-10T15:32:15Z</time></trkpt><trkpt lat="57.674719" lon="11.683821"><ele>-0.82</ele><time>2009-10-10T15:32:37Z</time></trkpt><trkpt lat="57.675302" lon="11.684051"><ele>-0.82</ele><time>2009-10-10T15:32:59Z</time></trkpt><trkpt lat="57.675765" lon="11.684208"><ele>-0.82</ele><time>2009-10-10T15:33:16Z</time></trkpt><trkpt lat="57.676356" lon="11.684427"><ele>-0.82</ele><time>2009-10-10T15:33:38Z</time></trkpt><trkpt lat="57.676954" lon="11.684718"><ele>-0.82</ele><time>2009-10-10T15:34:01Z</time></trkpt><trkpt lat="57.677558" lon="11.684954"><ele>-0.82</ele><time>2009-10-10T15:34:24Z</time></trkpt><trkpt lat="57.678108" lon="11.685204"><ele>0.14</ele><time>2009-10-10T15:34:44Z</time></trkpt><trkpt lat="57.678764" lon="11.685436"><ele>-0.34</ele><time>2009-10-10T15:35:08Z</time></trkpt><trkpt lat="57.679207" lon="11.685712"><ele>-0.34</ele><time>2009-10-10T15:35:25Z</time></trkpt><trkpt lat="57.679737" lon="11.685942"><ele>0.14</ele><time>2009-10-10T15:35:44Z</time></trkpt><trkpt lat="57.680291" lon="11.686160"><ele>0.14</ele><time>2009-10-10T15:36:04Z</time></trkpt><trkpt lat="57.680776" lon="11.686307"><ele>-0.34</ele><time>2009-10-10T15:36:21Z</time></trkpt><trkpt lat="57.681244" lon="11.686560"><ele>0.62</ele><time>2009-10-10T15:36:39Z</time></trkpt><trkpt lat="57.681743" lon="11.686973"><ele>0.14</ele><time>2009-10-10T15:37:02Z</time></trkpt><trkpt lat="57.682198" lon="11.687202"><ele>0.14</ele><time>2009-10-10T15:37:21Z</time></trkpt><trkpt lat="57.682731" lon="11.687578"><ele>-0.34</ele><time>2009-10-10T15:37:45Z</time></trkpt><trkpt lat="57.683295" lon="11.687990"><ele>-0.34</ele><time>2009-10-10T15:38:08Z</time></trkpt><trkpt lat="57.683871" lon="11.688415"><ele>-0.34</ele><time>2009-10-10T15:38:32Z</time></trkpt><trkpt lat="57.684466" lon="11.688871"><ele>0.14</ele><time>2009-10-10T15:38:57Z</time></trkpt><trkpt lat="57.685020" lon="11.689261"><ele>0.14</ele><time>2009-10-10T15:39:19Z</time></trkpt><trkpt lat="57.685677" lon="11.689740"><ele>0.14</ele><time>2009-10-10T15:39:45Z</time></trkpt><trkpt lat="57.686257" lon="11.690200"><ele>0.14</ele><time>2009-10-10T15:40:08Z</time></trkpt><trkpt lat="57.686775" lon="11.690705"><ele>-0.34</ele><time>2009-10-10T15:40:30Z</time></trkpt><trkpt lat="57.687394" lon="11.691021"><ele>-0.34</ele><time>2009-10-10T15:40:53Z</time></trkpt><trkpt lat="57.688084" lon="11.691239"><ele>-0.34</ele><time>2009-10-10T15:41:17Z</time></trkpt><trkpt lat="57.688847" lon="11.691654"><ele>-0.82</ele><time>2009-10-10T15:41:45Z</time></trkpt><trkpt lat="57.689577" lon="11.691910"><ele>-1.30</ele><time>2009-10-10T15:42:10Z</time></trkpt><trkpt lat="57.690427" lon="11.692202"><ele>-1.30</ele><time>2009-10-10T15:42:39Z</time></trkpt><trkpt lat="57.691126" lon="11.692410"><ele>0.14</ele><time>2009-10-10T15:43:03Z</time></trkpt><trkpt lat="57.691903" lon="11.692428"><ele>-0.82</ele><time>2009-10-10T15:43:29Z</time></trkpt><trkpt lat="57.692775" lon="11.692526"><ele>-0.34</ele><time>2009-10-10T15:43:58Z</time></trkpt><trkpt lat="57.693652" lon="11.692684"><ele>-1.30</ele><time>2009-10-10T15:44:28Z</time></trkpt><trkpt lat="57.694528" lon="11.692737"><ele>-1.30</ele><time>2009-10-10T15:44:58Z</time></trkpt><trkpt lat="57.695115" lon="11.692641"><ele>-1.30</ele><time>2009-10-10T15:45:18Z</time></trkpt><trkpt lat="57.696064" lon="11.692718"><ele>-1.30</ele><time>2009-10-10T15:45:50Z</time></trkpt><trkpt lat="57.696974" lon="11.692913"><ele>-1.79</ele><time>2009-10-10T15:46:22Z</time></trkpt><trkpt lat="57.697829" lon="11.693161"><ele>-0.82</ele><time>2009-10-10T15:46:50Z</time></trkpt><trkpt lat="57.698640" lon="11.693507"><ele>-2.27</ele><time>2009-10-10T15:47:18Z</time></trkpt><trkpt lat="57.699477" lon="11.693782"><ele>-1.79</ele><time>2009-10-10T15:47:48Z</time></trkpt><trkpt lat="57.700535" lon="11.694161"><ele>-1.30</ele><time>2009-10-10T15:48:25Z</time></trkpt><trkpt lat="57.701443" lon="11.694520"><ele>-1.79</ele><time>2009-10-10T15:48:56Z</time></trkpt><trkpt lat="57.702349" lon="11.694868"><ele>-1.79</ele><time>2009-10-10T15:49:27Z</time></trkpt><trkpt lat="57.703304" lon="11.695246"><ele>-1.79</ele><time>2009-10-10T15:50:01Z</time></trkpt><trkpt lat="57.704310" lon="11.695252"><ele>-2.75</ele><time>2009-10-10T15:50:38Z</time></trkpt><trkpt lat="57.705262" lon="11.695194"><ele>-2.27</ele><time>2009-10-10T15:51:15Z</time></trkpt><trkpt lat="57.706148" lon="11.695442"><ele>-2.27</ele><time>2009-10-10T15:51:54Z</time></trkpt><trkpt lat="57.707029" lon="11.695783"><ele>-1.79</ele><time>2009-10-10T15:52:31Z</time></trkpt><trkpt lat="57.708007" lon="11.696212"><ele>-2.27</ele><time>2009-10-10T15:53:09Z</time></trkpt><trkpt lat="57.708949" lon="11.696510"><ele>-1.79</ele><time>2009-10-10T15:53:50Z</time></trkpt><trkpt lat="57.709924" lon="11.696815"><ele>-2.27</ele><time>2009-10-10T15:54:26Z</time></trkpt><trkpt lat="57.710930" lon="11.697189"><ele>-1.79</ele><time>2009-10-10T15:55:05Z</time></trkpt><trkpt lat="57.711918" lon="11.697609"><ele>-1.30</ele><time>2009-10-10T15:55:41Z</time></trkpt><trkpt lat="57.712877" lon="11.698042"><ele>-1.79</ele><time>2009-10-10T15:56:15Z</time></trkpt><trkpt lat="57.713895" lon="11.698372"><ele>-1.79</ele><time>2009-10-10T15:56:52Z</time></trkpt><trkpt lat="57.714787" lon="11.698702"><ele>-2.27</ele><time>2009-10-10T15:57:28Z</time></trkpt><trkpt lat="57.715639" lon="11.699152"><ele>-1.79</ele><time>2009-10-10T15:58:04Z</time></trkpt><trkpt lat="57.716414" lon="11.699530"><ele>-2.27</ele><time>2009-10-10T15:58:37Z</time></trkpt><trkpt lat="57.717303" lon="11.699921"><ele>-1.79</ele><time>2009-10-10T15:59:12Z</time></trkpt><trkpt lat="57.718230" lon="11.700369"><ele>-2.75</ele><time>2009-10-10T15:59:50Z</time></trkpt><trkpt lat="57.719155" lon="11.700889"><ele>-3.23</ele><time>2009-10-10T16:00:33Z</time></trkpt><trkpt lat="57.719856" lon="11.701122"><ele>-3.23</ele><time>2009-10-10T16:01:10Z</time></trkpt><trkpt lat="57.720717" lon="11.701289"><ele>-2.75</ele><time>2009-10-10T16:01:53Z</time></trkpt><trkpt lat="57.721425" lon="11.701684"><ele>-2.27</ele><time>2009-10-10T16:02:34Z</time></trkpt><trkpt lat="57.722059" lon="11.702008"><ele>-3.23</ele><time>2009-10-10T16:03:18Z</time></trkpt><trkpt lat="57.722735" lon="11.702203"><ele>-2.27</ele><time>2009-10-10T16:04:03Z</time></trkpt><trkpt lat="57.723636" lon="11.702391"><ele>-3.23</ele><time>2009-10-10T16:04:46Z</time></trkpt><trkpt lat="57.724478" lon="11.702658"><ele>-2.75</ele><time>2009-10-10T16:05:27Z</time></trkpt><trkpt lat="57.725432" lon="11.702973"><ele>-3.23</ele><time>2009-10-10T16:06:12Z</time></trkpt><trkpt lat="57.726207" lon="11.703439"><ele>-3.23</ele><time>2009-10-10T16:06:54Z</time></trkpt><trkpt lat="57.727184" lon="11.703854"><ele>-3.23</ele><time>2009-10-10T16:07:40Z</time></trkpt><trkpt lat="57.727981" lon="11.704310"><ele>-3.71</ele><time>2009-10-10T16:08:18Z</time></trkpt><trkpt lat="57.729008" lon="11.704730"><ele>-4.19</ele><time>2009-10-10T16:09:01Z</time></trkpt><trkpt lat="57.730008" lon="11.705097"><ele>-4.67</ele><time>2009-10-10T16:09:41Z</time></trkpt><trkpt lat="57.730729" lon="11.705796"><ele>-4.19</ele><time>2009-10-10T16:10:15Z</time></trkpt><trkpt lat="57.731337" lon="11.706419"><ele>-4.19</ele><time>2009-10-10T16:10:46Z</time></trkpt><trkpt lat="57.732005" lon="11.707117"><ele>-4.19</ele><time>2009-10-10T16:11:19Z</time></trkpt><trkpt lat="57.732702" lon="11.707931"><ele>-4.19</ele><time>2009-10-10T16:11:53Z</time></trkpt><trkpt lat="57.733338" lon="11.708807"><ele>-4.67</ele><time>2009-10-10T16:12:29Z</time></trkpt><trkpt lat="57.733949" lon="11.709514"><ele>-4.19</ele><time>2009-10-10T16:13:02Z</time></trkpt><trkpt lat="57.734611" lon="11.710345"><ele>-4.67</ele><time>2009-10-10T16:13:40Z</time></trkpt><trkpt lat="57.735366" lon="11.711229"><ele>-3.71</ele><time>2009-10-10T16:14:20Z</time></trkpt><trkpt lat="57.736223" lon="11.712229"><ele>-5.15</ele><time>2009-10-10T16:15:03Z</time></trkpt><trkpt lat="57.736920" lon="11.713053"><ele>-4.19</ele><time>2009-10-10T16:15:39Z</time></trkpt><trkpt lat="57.737555" lon="11.713852"><ele>-4.19</ele><time>2009-10-10T16:16:12Z</time></trkpt><trkpt lat="57.738274" lon="11.714652"><ele>-4.19</ele><time>2009-10-10T16:16:47Z</time></trkpt><trkpt lat="57.739005" lon="11.715361"><ele>-4.67</ele><time>2009-10-10T16:17:20Z</time></trkpt><trkpt lat="57.739851" lon="11.716204"><ele>-5.15</ele><time>2009-10-10T16:17:58Z</time></trkpt><trkpt lat="57.740696" lon="11.717078"><ele>-4.19</ele><time>2009-10-10T16:18:38Z</time></trkpt><trkpt lat="57.741452" lon="11.717827"><ele>-4.67</ele><time>2009-10-10T16:19:14Z</time></trkpt><trkpt lat="57.742242" lon="11.718509"><ele>-4.67</ele><time>2009-10-10T16:19:47Z</time></trkpt><trkpt lat="57.743127" lon="11.719413"><ele>-4.67</ele><time>2009-10-10T16:20:27Z</time></trkpt><trkpt lat="57.743858" lon="11.720417"><ele>-4.67</ele><time>2009-10-10T16:21:06Z</time></trkpt><trkpt lat="57.744364" lon="11.721174"><ele>-4.19</ele><time>2009-10-10T16:21:38Z</time></trkpt><trkpt lat="57.744946" lon="11.722104"><ele>-4.19</ele><time>2009-10-10T16:22:14Z</time></trkpt><trkpt lat="57.745508" lon="11.723064"><ele>-4.19</ele><time>2009-10-10T16:22:49Z</time></trkpt><trkpt lat="57.746073" lon="11.723950"><ele>-5.15</ele><time>2009-10-10T16:23:24Z</time></trkpt><trkpt lat="57.746665" lon="11.724953"><ele>-5.15</ele><time>2009-10-10T16:24:04Z</time></trkpt><trkpt lat="57.747297" lon="11.725960"><ele>-4.67</ele><time>2009-10-10T16:24:47Z</time></trkpt><trkpt lat="57.747633" lon="11.726588"><ele>-4.19</ele><time>2009-10-10T16:25:10Z</time></trkpt><trkpt lat="57.748018" lon="11.727320"><ele>-4.67</ele><time>2009-10-10T16:25:37Z</time></trkpt><trkpt lat="57.748262" lon="11.727744"><ele>-3.71</ele><time>2009-10-10T16:25:55Z</time></trkpt><trkpt lat="57.748721" lon="11.728550"><ele>-4.19</ele><time>2009-10-10T16:26:30Z</time></trkpt><trkpt lat="57.749226" lon="11.729334"><ele>-4.67</ele><time>2009-10-10T16:27:09Z</time></trkpt><trkpt lat="57.749629" lon="11.730061"><ele>-5.15</ele><time>2009-10-10T16:27:41Z</time></trkpt><trkpt lat="57.749840" lon="11.730476"><ele>504.83</ele><time>2009-10-10T16:28:00Z</time></trkpt><trkpt lat="57.749850" lon="11.730499"><ele>504.83</ele><time>2009-10-10T16:28:01Z</time></trkpt><trkpt lat="57.749860" lon="11.730521"><ele>-58.02</ele><time>2009-10-10T16:28:02Z</time></trkpt><trkpt lat="57.749871" lon="11.730543"><ele>-56.58</ele><time>2009-10-10T16:28:03Z</time></trkpt><trkpt lat="57.749912" lon="11.730622"><ele>-58.02</ele><time>2009-10-10T16:28:07Z</time></trkpt><trkpt lat="57.750118" lon="11.731035"><ele>-57.06</ele><time>2009-10-10T16:28:27Z</time></trkpt><trkpt lat="57.750547" lon="11.731814"><ele>-56.58</ele><time>2009-10-10T16:29:05Z</time></trkpt><trkpt lat="57.750940" lon="11.732496"><ele>-55.62</ele><time>2009-10-10T16:29:42Z</time></trkpt><trkpt lat="57.751410" lon="11.733311"><ele>-54.66</ele><time>2009-10-10T16:30:19Z</time></trkpt><trkpt lat="57.751834" lon="11.734095"><ele>-54.18</ele><time>2009-10-10T16:30:54Z</time></trkpt><trkpt lat="57.752286" lon="11.734919"><ele>-52.74</ele><time>2009-10-10T16:31:30Z</time></trkpt><trkpt lat="57.752725" lon="11.735686"><ele>-51.77</ele><time>2009-10-10T16:32:08Z</time></trkpt><trkpt lat="57.753084" lon="11.736342"><ele>-50.81</ele><time>2009-10-10T16:32:39Z</time></trkpt><trkpt lat="57.753502" lon="11.737087"><ele>-50.81</ele><time>2009-10-10T16:33:11Z</time></trkpt><trkpt lat="57.753930" lon="11.737892"><ele>-49.37</ele><time>2009-10-10T16:33:45Z</time></trkpt><trkpt lat="57.754309" lon="11.738538"><ele>-48.41</ele><time>2009-10-10T16:34:17Z</time></trkpt><trkpt lat="57.754575" lon="11.739022"><ele>-47.45</ele><time>2009-10-10T16:34:40Z</time></trkpt><trkpt lat="57.754982" lon="11.739716"><ele>-46.97</ele><time>2009-10-10T16:35:20Z</time></trkpt><trkpt lat="57.755365" lon="11.740466"><ele>-46.49</ele><time>2009-10-10T16:35:55Z</time></trkpt><trkpt lat="57.755744" lon="11.741118"><ele>-46.01</ele><time>2009-10-10T16:36:30Z</time></trkpt><trkpt lat="57.756142" lon="11.741854"><ele>-45.04</ele><time>2009-10-10T16:37:04Z</time></trkpt><trkpt lat="57.756554" lon="11.742593"><ele>-43.60</ele><time>2009-10-10T16:37:38Z</time></trkpt><trkpt lat="57.756897" lon="11.743279"><ele>-43.12</ele><time>2009-10-10T16:38:12Z</time></trkpt><trkpt lat="57.757289" lon="11.744050"><ele>-42.64</ele><time>2009-10-10T16:38:48Z</time></trkpt><trkpt lat="57.757637" lon="11.744687"><ele>-41.20</ele><time>2009-10-10T16:39:20Z</time></trkpt><trkpt lat="57.758168" lon="11.745308"><ele>-41.20</ele><time>2009-10-10T16:40:00Z</time></trkpt><trkpt lat="57.758739" lon="11.745734"><ele>-40.24</ele><time>2009-10-10T16:40:37Z</time></trkpt><trkpt lat="57.759089" lon="11.746209"><ele>-39.76</ele><time>2009-10-10T16:41:11Z</time></trkpt><trkpt lat="57.759624" lon="11.746668"><ele>-38.32</ele><time>2009-10-10T16:41:55Z</time></trkpt><trkpt lat="57.760093" lon="11.747173"><ele>-37.83</ele><time>2009-10-10T16:42:32Z</time></trkpt><trkpt lat="57.760622" lon="11.747682"><ele>-36.87</ele><time>2009-10-10T16:43:09Z</time></trkpt><trkpt lat="57.761099" lon="11.748428"><ele>-35.91</ele><time>2009-10-10T16:43:50Z</time></trkpt><trkpt lat="57.761406" lon="11.749144"><ele>-35.43</ele><time>2009-10-10T16:44:30Z</time></trkpt><trkpt lat="57.761494" lon="11.749877"><ele>-34.47</ele><time>2009-10-10T16:45:04Z</time></trkpt><trkpt lat="57.761484" lon="11.750723"><ele>-33.99</ele><time>2009-10-10T16:45:41Z</time></trkpt><trkpt lat="57.761465" lon="11.751566"><ele>-33.03</ele><time>2009-10-10T16:46:17Z</time></trkpt><trkpt lat="57.761584" lon="11.752403"><ele>-32.55</ele><time>2009-10-10T16:46:54Z</time></trkpt><trkpt lat="57.761686" lon="11.753285"><ele>-33.03</ele><time>2009-10-10T16:47:32Z</time></trkpt><trkpt lat="57.761730" lon="11.754234"><ele>-31.59</ele><time>2009-10-10T16:48:10Z</time></trkpt><trkpt lat="57.761732" lon="11.755080"><ele>-31.59</ele><time>2009-10-10T16:48:43Z</time></trkpt><trkpt lat="57.761796" lon="11.756063"><ele>-30.62</ele><time>2009-10-10T16:49:23Z</time></trkpt><trkpt lat="57.761811" lon="11.756896"><ele>-30.14</ele><time>2009-10-10T16:49:57Z</time></trkpt><trkpt lat="57.761887" lon="11.757957"><ele>-29.66</ele><time>2009-10-10T16:50:35Z</time></trkpt><trkpt lat="57.761865" lon="11.759216"><ele>-29.66</ele><time>2009-10-10T16:51:16Z</time></trkpt><trkpt lat="57.761864" lon="11.759238"><ele>-29.66</ele><time>2009-10-10T16:51:17Z</time></trkpt><trkpt lat="57.761856" lon="11.759442"><ele>-29.18</ele><time>2009-10-10T16:51:26Z</time></trkpt><trkpt lat="57.761878" lon="11.760558"><ele>-28.70</ele><time>2009-10-10T16:52:02Z</time></trkpt><trkpt lat="57.761856" lon="11.762198"><ele>-27.74</ele><time>2009-10-10T16:52:51Z</time></trkpt><trkpt lat="57.761821" lon="11.763811"><ele>-27.26</ele><time>2009-10-10T16:53:36Z</time></trkpt><trkpt lat="57.761801" lon="11.765376"><ele>-27.26</ele><time>2009-10-10T16:54:19Z</time></trkpt><trkpt lat="57.761808" lon="11.767022"><ele>-26.30</ele><time>2009-10-10T16:55:04Z</time></trkpt><trkpt lat="57.761753" lon="11.768705"><ele>-25.82</ele><time>2009-10-10T16:55:48Z</time></trkpt><trkpt lat="57.761730" lon="11.770238"><ele>-25.82</ele><time>2009-10-10T16:56:29Z</time></trkpt><trkpt lat="57.761738" lon="11.771948"><ele>-24.38</ele><time>2009-10-10T16:57:15Z</time></trkpt><trkpt lat="57.761701" lon="11.773310"><ele>-23.90</ele><time>2009-10-10T16:57:52Z</time></trkpt><trkpt lat="57.761690" lon="11.774898"><ele>-23.41</ele><time>2009-10-10T16:58:35Z</time></trkpt><trkpt lat="57.761667" lon="11.775799"><ele>-23.90</ele><time>2009-10-10T16:58:59Z</time></trkpt><trkpt lat="57.761675" lon="11.777696"><ele>-22.45</ele><time>2009-10-10T16:59:48Z</time></trkpt><trkpt lat="57.761736" lon="11.779724"><ele>-21.49</ele><time>2009-10-10T17:00:40Z</time></trkpt><trkpt lat="57.761762" lon="11.781645"><ele>-21.97</ele><time>2009-10-10T17:01:30Z</time></trkpt><trkpt lat="57.761737" lon="11.783452"><ele>-21.49</ele><time>2009-10-10T17:02:17Z</time></trkpt><trkpt lat="57.761715" lon="11.785225"><ele>-21.01</ele><time>2009-10-10T17:03:03Z</time></trkpt><trkpt lat="57.761706" lon="11.787025"><ele>-21.01</ele><time>2009-10-10T17:03:49Z</time></trkpt><trkpt lat="57.761685" lon="11.788873"><ele>-20.05</ele><time>2009-10-10T17:04:36Z</time></trkpt><trkpt lat="57.761618" lon="11.790833"><ele>-19.09</ele><time>2009-10-10T17:05:26Z</time></trkpt><trkpt lat="57.761475" lon="11.793018"><ele>-18.61</ele><time>2009-10-10T17:06:22Z</time></trkpt><trkpt lat="57.761363" lon="11.795031"><ele>-18.61</ele><time>2009-10-10T17:07:14Z</time></trkpt><trkpt lat="57.761446" lon="11.797173"><ele>-17.65</ele><time>2009-10-10T17:08:10Z</time></trkpt><trkpt lat="57.762059" lon="11.798785"><ele>-17.17</ele><time>2009-10-10T17:09:02Z</time></trkpt><trkpt lat="57.762386" lon="11.800123"><ele>-16.69</ele><time>2009-10-10T17:09:41Z</time></trkpt><trkpt lat="57.762419" lon="11.801479"><ele>-16.69</ele><time>2009-10-10T17:10:16Z</time></trkpt><trkpt lat="57.762335" lon="11.802820"><ele>-16.21</ele><time>2009-10-10T17:10:58Z</time></trkpt><trkpt lat="57.762277" lon="11.804129"><ele>-15.72</ele><time>2009-10-10T17:11:44Z</time></trkpt><trkpt lat="57.762482" lon="11.804793"><ele>-15.24</ele><time>2009-10-10T17:12:15Z</time></trkpt><trkpt lat="57.762912" lon="11.805162"><ele>-15.24</ele><time>2009-10-10T17:12:48Z</time></trkpt><trkpt lat="57.762887" lon="11.805264"><ele>-14.76</ele><time>2009-10-10T17:12:54Z</time></trkpt><trkpt lat="57.762870" lon="11.805278"><ele>-15.24</ele><time>2009-10-10T17:12:56Z</time></trkpt><trkpt lat="57.762828" lon="11.805259"><ele>-15.24</ele><time>2009-10-10T17:13:01Z</time></trkpt><trkpt lat="57.762402" lon="11.804552"><ele>-14.76</ele><time>2009-10-10T17:13:42Z</time></trkpt><trkpt lat="57.762465" lon="11.804045"><ele>-14.76</ele><time>2009-10-10T17:14:08Z</time></trkpt><trkpt lat="57.762811" lon="11.804358"><ele>-15.24</ele><time>2009-10-10T17:14:38Z</time></trkpt><trkpt lat="57.763093" lon="11.804707"><ele>-13.80</ele><time>2009-10-10T17:15:14Z</time></trkpt><trkpt lat="57.763308" lon="11.804931"><ele>-13.80</ele><time>2009-10-10T17:15:52Z</time></trkpt><trkpt lat="57.763456" lon="11.804896"><ele>-13.32</ele><time>2009-10-10T17:16:36Z</time></trkpt><trkpt lat="57.763456" lon="11.804888"><ele>-13.32</ele><time>2009-10-10T17:17:12Z</time></trkpt><trkpt lat="57.763458" lon="11.804875"><ele>-11.88</ele><time>2009-10-10T17:19:30Z</time></trkpt><trkpt lat="57.763453" lon="11.804845"><ele>-9.96</ele><time>2009-10-10T17:24:42Z</time></trkpt></trkseg></trk></gpx>